Wetterdaten: Donnerstag, 26.06.2014
Datum Zeit Temp. Aussen +5cm Feuchte Auss Luftdruck Regen Sonnenschein Regendauer UV Solar Windben
26.06.2014 00:00 13,1 C 11,7 C 80 % 1015,9 hPa 0,0 l/m 0 min 0 min 0,0 UV-I 0 W/m 0,0 km/h (0 Bft)
26.06.2014 00:02 13,1 C 11,7 C 80 % 1015,8 hPa 0,0 l/m 0 min 0 min 0,0 UV-I 0 W/m 0,0 km/h (0 Bft)
26.06.2014 00:06 13,0 C 11,7 C 80 % 1015,8 hPa 0,0 l/m 0 min 0 min 0,0 UV-I 0 W/m 0,0 km/h (0 Bft)
26.06.2014 00:08 13,0 C 11,7 C 80 % 1015,9 hPa 0,0 l/m 0 min 0 min 0,0 UV-I 0 W/m 0,0 km/h (0 Bft)
26.06.2014 00:10 13,0 C 11,7 C 81 % 1015,9 hPa 0,0 l/m 0 min 0 min 0,0 UV-I 0 W/m 0,0 km/h (0 Bft)
26.06.2014 00:12 13,0 C 11,7 C 81 % 1015,8 hPa 0,0 l/m 0 min 0 min 0,0 UV-I 0 W/m 0,0 km/h (0 Bft)
26.06.2014 00:14 13,1 C 11,7 C 81 % 1015,8 hPa 0,0 l/m 0 min 0 min 0,0 UV-I 0 W/m 0,0 km/h (0 Bft)
26.06.2014 00:16 13,1 C 11,7 C 81 % 1015,8 hPa 0,0 l/m 0 min 0 min 0,0 UV-I 0 W/m 0,0 km/h (0 Bft)
26.06.2014 00:18 13,1 C 11,7 C 81 % 1015,8 hPa 0,0 l/m 0 min 0 min 0,0 UV-I 0 W/m 0,0 km/h (0 Bft)
26.06.2014 00:20 13,1 C 11,7 C 81 % 1015,8 hPa 0,0 l/m 0 min 0 min 0,0 UV-I 0 W/m 0,0 km/h (0 Bft)
26.06.2014 00:22 13,1 C 11,7 C 81 % 1015,8 hPa 0,0 l/m 0 min 0 min 0,0 UV-I 0 W/m 0,0 km/h (0 Bft)
26.06.2014 00:24 13,1 C 11,7 C 81 % 1015,8 hPa 0,0 l/m 0 min 0 min 0,0 UV-I 0 W/m 0,0 km/h (0 Bft)
26.06.2014 00:26 13,1 C 11,1 C 80 % 1015,8 hPa 0,0 l/m 0 min 0 min 0,0 UV-I 0 W/m 0,0 km/h (0 Bft)
26.06.2014 00:28 13,1 C 11,1 C 81 % 1015,8 hPa 0,0 l/m 0 min 0 min 0,0 UV-I 0 W/m 0,0 km/h (0 Bft)
26.06.2014 00:30 13,1 C 11,1 C 81 % 1015,8 hPa 0,0 l/m 0 min 0 min 0,0 UV-I 0 W/m 0,0 km/h (0 Bft)
26.06.2014 00:32 13,0 C 11,1 C 81 % 1015,8 hPa 0,0 l/m 0 min 0 min 0,0 UV-I 0 W/m 0,0 km/h (0 Bft)
26.06.2014 00:34 12,9 C 11,1 C 81 % 1015,8 hPa 0,0 l/m 0 min 0 min 0,0 UV-I 0 W/m 0,0 km/h (0 Bft)
26.06.2014 00:36 13,0 C 11,1 C 81 % 1015,8 hPa 0,0 l/m 0 min 0 min 0,0 UV-I 0 W/m 0,0 km/h (0 Bft)
26.06.2014 00:38 12,9 C 11,1 C 82 % 1015,8 hPa 0,0 l/m 0 min 0 min 0,0 UV-I 0 W/m 0,0 km/h (0 Bft)
26.06.2014 00:40 12,9 C 11,1 C 82 % 1015,8 hPa 0,0 l/m 0 min 0 min 0,0 UV-I 0 W/m 0,0 km/h (0 Bft)
26.06.2014 00:42 12,9 C 11,1 C 82 % 1015,8 hPa 0,0 l/m 0 min 0 min 0,0 UV-I 0 W/m 0,0 km/h (0 Bft)
26.06.2014 00:44 12,8 C 11,1 C 82 % 1015,8 hPa 0,0 l/m 0 min 0 min 0,0 UV-I 0 W/m 0,0 km/h (0 Bft)
26.06.2014 00:46 12,8 C 11,1 C 83 % 1015,8 hPa 0,0 l/m 0 min 0 min 0,0 UV-I 0 W/m 0,0 km/h (0 Bft)
26.06.2014 00:48 12,8 C 11,1 C 83 % 1015,8 hPa 0,0 l/m 0 min 0 min 0,0 UV-I 0 W/m 0,0 km/h (0 Bft)
26.06.2014 00:50 12,8 C 11,1 C 83 % 1015,8 hPa 0,0 l/m 0 min 0 min 0,0 UV-I 0 W/m 0,0 km/h (0 Bft)
26.06.2014 00:52 12,8 C 11,1 C 83 % 1015,8 hPa 0,0 l/m 0 min 0 min 0,0 UV-I 0 W/m 0,0 km/h (0 Bft)
26.06.2014 00:54 12,7 C 11,1 C 83 % 1015,8 hPa 0,0 l/m 0 min 0 min 0,0 UV-I 0 W/m 0,0 km/h (0 Bft)
26.06.2014 00:56 12,7 C 11,1 C 83 % 1015,9 hPa 0,0 l/m 0 min 0 min 0,0 UV-I 0 W/m 2,1 km/h (1 Bft)
26.06.2014 00:58 12,6 C 11,1 C 83 % 1015,8 hPa 0,0 l/m 0 min 0 min 0,0 UV-I 0 W/m 10,5 km/h (2 Bft)
26.06.2014 01:00 12,6 C 11,1 C 84 % 1015,9 hPa 0,0 l/m 0 min 0 min 0,0 UV-I 0 W/m 6,3 km/h (2 Bft)
26.06.2014 01:02 12,4 C 11,1 C 84 % 1015,9 hPa 0,0 l/m 0 min 0 min 0,0 UV-I 0 W/m 8,4 km/h (2 Bft)
26.06.2014 01:04 12,4 C 11,1 C 84 % 1015,9 hPa 0,0 l/m 0 min 0 min 0,0 UV-I 0 W/m 6,3 km/h (2 Bft)
26.06.2014 01:06 12,4 C 11,1 C 84 % 1015,9 hPa 0,0 l/m 0 min 0 min 0,0 UV-I 0 W/m 6,3 km/h (2 Bft)
26.06.2014 01:08 12,4 C 11,1 C 84 % 1015,9 hPa 0,0 l/m 0 min 0 min 0,0 UV-I 0 W/m 0,0 km/h (0 Bft)
26.06.2014 01:10 12,4 C 11,1 C 84 % 1016,0 hPa 0,0 l/m 0 min 0 min 0,0 UV-I 0 W/m 2,1 km/h (1 Bft)
26.06.2014 01:12 12,4 C 11,1 C 84 % 1015,9 hPa 0,0 l/m 0 min 0 min 0,0 UV-I 0 W/m 0,0 km/h (0 Bft)
26.06.2014 01:14 12,4 C 11,1 C 84 % 1016,0 hPa 0,0 l/m 0 min 0 min 0,0 UV-I 0 W/m 0,0 km/h (0 Bft)
26.06.2014 01:16 12,4 C 11,1 C 84 % 1016,0 hPa 0,0 l/m 0 min 0 min 0,0 UV-I 0 W/m 0,0 km/h (0 Bft)
26.06.2014 01:18 12,5 C 11,1 C 84 % 1015,9 hPa 0,0 l/m 0 min 0 min 0,0 UV-I 0 W/m 0,0 km/h (0 Bft)
26.06.2014 01:20 12,6 C 11,1 C 83 % 1016,0 hPa 0,0 l/m 0 min 0 min 0,0 UV-I 0 W/m 2,1 km/h (1 Bft)
26.06.2014 01:22 12,7 C 11,1 C 83 % 1016,0 hPa 0,0 l/m 0 min 0 min 0,0 UV-I 0 W/m 0,0 km/h (0 Bft)
26.06.2014 01:24 12,7 C 11,7 C 83 % 1015,9 hPa 0,0 l/m 0 min 0 min 0,0 UV-I 0 W/m 0,0 km/h (0 Bft)
26.06.2014 01:26 12,7 C 11,7 C 83 % 1016,0 hPa 0,0 l/m 0 min 0 min 0,0 UV-I 0 W/m 0,0 km/h (0 Bft)
26.06.2014 01:28 12,8 C 11,7 C 83 % 1015,9 hPa 0,0 l/m 0 min 0 min 0,0 UV-I 0 W/m 0,0 km/h (0 Bft)
26.06.2014 01:30 12,9 C 11,7 C 82 % 1015,9 hPa 0,0 l/m 0 min 0 min 0,0 UV-I 0 W/m 0,0 km/h (0 Bft)
26.06.2014 01:32 12,9 C 11,7 C 82 % 1015,9 hPa 0,0 l/m 0 min 0 min 0,0 UV-I 0 W/m 0,0 km/h (0 Bft)
26.06.2014 01:34 13,0 C 11,7 C 82 % 1015,9 hPa 0,0 l/m 0 min 0 min 0,0 UV-I 0 W/m 0,0 km/h (0 Bft)
26.06.2014 01:36 13,0 C 11,7 C 82 % 1015,9 hPa 0,0 l/m 0 min 0 min 0,0 UV-I 0 W/m 0,0 km/h (0 Bft)
26.06.2014 01:38 13,1 C 11,7 C 82 % 1015,9 hPa 0,0 l/m 0 min 0 min 0,0 UV-I 0 W/m 0,0 km/h (0 Bft)
26.06.2014 01:40 13,1 C 11,7 C 82 % 1015,9 hPa 0,0 l/m 0 min 0 min 0,0 UV-I 0 W/m 0,0 km/h (0 Bft)
26.06.2014 01:42 13,0 C 11,1 C 82 % 1015,8 hPa 0,0 l/m 0 min 0 min 0,0 UV-I 0 W/m 0,0 km/h (0 Bft)
26.06.2014 01:44 13,0 C 11,1 C 82 % 1015,8 hPa 0,0 l/m 0 min 0 min 0,0 UV-I 0 W/m 0,0 km/h (0 Bft)
26.06.2014 01:46 12,9 C 11,1 C 82 % 1015,7 hPa 0,0 l/m 0 min 0 min 0,0 UV-I 0 W/m 0,0 km/h (0 Bft)
26.06.2014 01:48 12,9 C 11,1 C 82 % 1015,8 hPa 0,0 l/m 0 min 0 min 0,0 UV-I 0 W/m 0,0 km/h (0 Bft)
26.06.2014 01:50 12,9 C 11,1 C 82 % 1015,8 hPa 0,0 l/m 0 min 0 min 0,0 UV-I 0 W/m 0,0 km/h (0 Bft)
26.06.2014 01:52 12,8 C 11,1 C 83 % 1015,7 hPa 0,0 l/m 0 min 0 min 0,0 UV-I 0 W/m 2,1 km/h (1 Bft)
26.06.2014 01:54 12,8 C 11,1 C 83 % 1015,7 hPa 0,0 l/m 0 min 0 min 0,0 UV-I 0 W/m 0,0 km/h (0 Bft)
26.06.2014 01:56 12,7 C 11,1 C 83 % 1015,7 hPa 0,0 l/m 0 min 0 min 0,0 UV-I 0 W/m 0,0 km/h (0 Bft)
26.06.2014 01:58 12,7 C 11,1 C 83 % 1015,7 hPa 0,0 l/m 0 min 0 min 0,0 UV-I 0 W/m 0,0 km/h (0 Bft)
26.06.2014 02:00 12,7 C 11,1 C 83 % 1015,8 hPa 0,0 l/m 0 min 0 min 0,0 UV-I 0 W/m 0,0 km/h (0 Bft)
26.06.2014 02:02 12,7 C 11,1 C 83 % 1015,7 hPa 0,0 l/m 0 min 0 min 0,0 UV-I 0 W/m 0,0 km/h (0 Bft)
26.06.2014 02:04 12,6 C 11,1 C 84 % 1015,7 hPa 0,0 l/m 0 min 0 min 0,0 UV-I 0 W/m 2,1 km/h (1 Bft)
26.06.2014 02:06 12,6 C 11,1 C 84 % 1015,7 hPa 0,0 l/m 0 min 0 min 0,0 UV-I 0 W/m 0,0 km/h (0 Bft)
26.06.2014 02:08 12,6 C 10,6 C 84 % 1015,7 hPa 0,0 l/m 0 min 0 min 0,0 UV-I 0 W/m 0,0 km/h (0 Bft)
26.06.2014 02:10 12,6 C 10,6 C 84 % 1015,7 hPa 0,0 l/m 0 min 0 min 0,0 UV-I 0 W/m 0,0 km/h (0 Bft)
26.06.2014 02:12 12,6 C 10,6 C 84 % 1015,7 hPa 0,0 l/m 0 min 0 min 0,0 UV-I 0 W/m 0,0 km/h (0 Bft)
26.06.2014 02:14 12,6 C 10,6 C 84 % 1015,7 hPa 0,0 l/m 0 min 0 min 0,0 UV-I 0 W/m 0,0 km/h (0 Bft)
26.06.2014 02:16 12,6 C 10,6 C 84 % 1015,6 hPa 0,0 l/m 0 min 0 min 0,0 UV-I 0 W/m 0,0 km/h (0 Bft)
26.06.2014 02:18 12,6 C 10,6 C 84 % 1015,7 hPa 0,0 l/m 0 min 0 min 0,0 UV-I 0 W/m 0,0 km/h (0 Bft)
26.06.2014 02:20 12,6 C 10,6 C 84 % 1015,6 hPa 0,0 l/m 0 min 0 min 0,0 UV-I 0 W/m 0,0 km/h (0 Bft)
26.06.2014 02:22 12,6 C 10,6 C 84 % 1015,6 hPa 0,0 l/m 0 min 0 min 0,0 UV-I 0 W/m 0,0 km/h (0 Bft)
26.06.2014 02:24 12,6 C 10,6 C 84 % 1015,6 hPa 0,0 l/m 0 min 0 min 0,0 UV-I 0 W/m 0,0 km/h (0 Bft)
26.06.2014 02:26 12,6 C 10,6 C 84 % 1015,6 hPa 0,0 l/m 0 min 0 min 0,0 UV-I 0 W/m 0,0 km/h (0 Bft)
26.06.2014 02:28 12,6 C 10,6 C 84 % 1015,6 hPa 0,0 l/m 0 min 0 min 0,0 UV-I 0 W/m 0,0 km/h (0 Bft)
26.06.2014 02:30 12,5 C 10,6 C 84 % 1015,6 hPa 0,0 l/m 0 min 0 min 0,0 UV-I 0 W/m 0,0 km/h (0 Bft)
26.06.2014 02:32 12,5 C 10,6 C 84 % 1015,6 hPa 0,0 l/m 0 min 0 min 0,0 UV-I 0 W/m 0,0 km/h (0 Bft)
26.06.2014 02:34 12,5 C 10,6 C 84 % 1015,6 hPa 0,0 l/m 0 min 0 min 0,0 UV-I 0 W/m 0,0 km/h (0 Bft)
26.06.2014 02:36 12,5 C 10,6 C 84 % 1015,6 hPa 0,0 l/m 0 min 0 min 0,0 UV-I 0 W/m 0,0 km/h (0 Bft)
26.06.2014 02:38 12,5 C 10,6 C 84 % 1015,6 hPa 0,0 l/m 0 min 0 min 0,0 UV-I 0 W/m 0,0 km/h (0 Bft)
26.06.2014 02:40 12,5 C 10,6 C 84 % 1015,5 hPa 0,0 l/m 0 min 0 min 0,0 UV-I 0 W/m 0,0 km/h (0 Bft)
26.06.2014 02:42 12,4 C 10,6 C 84 % 1015,4 hPa 0,0 l/m 0 min 0 min 0,0 UV-I 0 W/m 0,0 km/h (0 Bft)
26.06.2014 02:44 12,4 C 10,6 C 84 % 1015,5 hPa 0,0 l/m 0 min 0 min 0,0 UV-I 0 W/m 0,0 km/h (0 Bft)
26.06.2014 02:46 12,4 C 10,6 C 85 % 1015,4 hPa 0,0 l/m 0 min 0 min 0,0 UV-I 0 W/m 0,0 km/h (0 Bft)
26.06.2014 02:48 12,3 C 10,6 C 85 % 1015,4 hPa 0,0 l/m 0 min 0 min 0,0 UV-I 0 W/m 0,0 km/h (0 Bft)
26.06.2014 02:50 12,3 C 10,6 C 85 % 1015,4 hPa 0,0 l/m 0 min 0 min 0,0 UV-I 0 W/m 0,0 km/h (0 Bft)
26.06.2014 02:52 12,3 C 10,6 C 85 % 1015,5 hPa 0,0 l/m 0 min 0 min 0,0 UV-I 0 W/m 0,0 km/h (0 Bft)
26.06.2014 02:54 12,3 C 10,6 C 85 % 1015,5 hPa 0,0 l/m 0 min 0 min 0,0 UV-I 0 W/m 0,0 km/h (0 Bft)
26.06.2014 02:56 12,3 C 10,6 C 85 % 1015,4 hPa 0,0 l/m 0 min 0 min 0,0 UV-I 0 W/m 0,0 km/h (0 Bft)
26.06.2014 02:58 12,2 C 10,6 C 85 % 1015,4 hPa 0,0 l/m 0 min 0 min 0,0 UV-I 0 W/m 0,0 km/h (0 Bft)
26.06.2014 03:00 12,2 C 10,6 C 85 % 1015,5 hPa 0,0 l/m 0 min 0 min 0,0 UV-I 0 W/m 0,0 km/h (0 Bft)
26.06.2014 03:02 12,2 C 10,6 C 85 % 1015,5 hPa 0,0 l/m 0 min 0 min 0,0 UV-I 0 W/m 0,0 km/h (0 Bft)
26.06.2014 03:04 12,1 C 10,6 C 85 % 1015,5 hPa 0,0 l/m 0 min 0 min 0,0 UV-I 0 W/m 0,0 km/h (0 Bft)
26.06.2014 03:06 12,0 C 10,6 C 86 % 1015,5 hPa 0,0 l/m 0 min 0 min 0,0 UV-I 0 W/m 0,0 km/h (0 Bft)
26.06.2014 03:08 11,9 C 10,6 C 86 % 1015,5 hPa 0,0 l/m 0 min 0 min 0,0 UV-I 0 W/m 0,0 km/h (0 Bft)
26.06.2014 03:10 11,9 C 10,6 C 86 % 1015,5 hPa 0,0 l/m 0 min 0 min 0,0 UV-I 0 W/m 0,0 km/h (0 Bft)
26.06.2014 03:12 11,8 C 10,0 C 86 % 1015,6 hPa 0,0 l/m 0 min 0 min 0,0 UV-I 0 W/m 0,0 km/h (0 Bft)
26.06.2014 03:14 11,8 C 10,0 C 87 % 1015,6 hPa 0,0 l/m 0 min 0 min 0,0 UV-I 0 W/m 0,0 km/h (0 Bft)
26.06.2014 03:16 11,7 C 10,0 C 87 % 1015,5 hPa 0,0 l/m 0 min 0 min 0,0 UV-I 0 W/m 0,0 km/h (0 Bft)
26.06.2014 03:18 11,7 C 10,0 C 87 % 1015,5 hPa 0,0 l/m 0 min 0 min 0,0 UV-I 0 W/m 0,0 km/h (0 Bft)
26.06.2014 03:20 11,7 C 10,0 C 87 % 1015,6 hPa 0,0 l/m 0 min 0 min 0,0 UV-I 0 W/m 0,0 km/h (0 Bft)
26.06.2014 03:22 11,7 C 10,0 C 87 % 1015,5 hPa 0,0 l/m 0 min 0 min 0,0 UV-I 0 W/m 0,0 km/h (0 Bft)
26.06.2014 03:24 11,6 C 10,0 C 87 % 1015,5 hPa 0,0 l/m 0 min 0 min 0,0 UV-I 0 W/m 0,0 km/h (0 Bft)
26.06.2014 03:26 11,6 C 10,0 C 87 % 1015,4 hPa 0,0 l/m 0 min 0 min 0,0 UV-I 0 W/m 0,0 km/h (0 Bft)
26.06.2014 03:28 11,6 C 10,0 C 87 % 1015,4 hPa 0,0 l/m 0 min 0 min 0,0 UV-I 0 W/m 0,0 km/h (0 Bft)
26.06.2014 03:30 11,5 C 10,0 C 88 % 1015,3 hPa 0,0 l/m 0 min 0 min 0,0 UV-I 0 W/m 0,0 km/h (0 Bft)
26.06.2014 03:32 11,4 C 10,0 C 88 % 1015,3 hPa 0,0 l/m 0 min 0 min 0,0 UV-I 0 W/m 0,0 km/h (0 Bft)
26.06.2014 03:34 11,4 C 10,0 C 88 % 1015,4 hPa 0,0 l/m 0 min 0 min 0,0 UV-I 0 W/m 0,0 km/h (0 Bft)
26.06.2014 03:36 11,4 C 10,0 C 88 % 1015,3 hPa 0,0 l/m 0 min 0 min 0,0 UV-I 0 W/m 0,0 km/h (0 Bft)
26.06.2014 03:38 11,4 C 10,0 C 88 % 1015,3 hPa 0,0 l/m 0 min 0 min 0,0 UV-I 0 W/m 0,0 km/h (0 Bft)
26.06.2014 03:40 11,4 C 10,0 C 88 % 1015,3 hPa 0,0 l/m 0 min 0 min 0,0 UV-I 0 W/m 0,0 km/h (0 Bft)
26.06.2014 03:42 11,4 C 10,0 C 88 % 1015,3 hPa 0,0 l/m 0 min 0 min 0,0 UV-I 0 W/m 0,0 km/h (0 Bft)
26.06.2014 03:44 11,4 C 10,0 C 89 % 1015,3 hPa 0,0 l/m 0 min 0 min 0,0 UV-I 0 W/m 0,0 km/h (0 Bft)
26.06.2014 03:46 11,4 C 10,0 C 89 % 1015,3 hPa 0,0 l/m 0 min 0 min 0,0 UV-I 0 W/m 0,0 km/h (0 Bft)
26.06.2014 03:48 11,3 C 10,0 C 89 % 1015,3 hPa 0,0 l/m 0 min 0 min 0,0 UV-I 0 W/m 0,0 km/h (0 Bft)
26.06.2014 03:50 11,3 C 10,0 C 89 % 1015,2 hPa 0,0 l/m 0 min 0 min 0,0 UV-I 0 W/m 0,0 km/h (0 Bft)
26.06.2014 03:52 11,3 C 10,0 C 89 % 1015,2 hPa 0,0 l/m 0 min 0 min 0,0 UV-I 0 W/m 0,0 km/h (0 Bft)
26.06.2014 03:54 11,3 C 9,4 C 89 % 1015,3 hPa 0,0 l/m 0 min 0 min 0,0 UV-I 0 W/m 0,0 km/h (0 Bft)
26.06.2014 03:56 11,3 C 9,4 C 89 % 1015,3 hPa 0,0 l/m 0 min 0 min 0,0 UV-I 0 W/m 0,0 km/h (0 Bft)
26.06.2014 03:58 11,3 C 10,0 C 89 % 1015,3 hPa 0,0 l/m 0 min 0 min 0,0 UV-I 0 W/m 0,0 km/h (0 Bft)
26.06.2014 04:00 11,3 C 10,0 C 89 % 1015,3 hPa 0,0 l/m 0 min 0 min 0,0 UV-I 0 W/m 0,0 km/h (0 Bft)
26.06.2014 04:02 11,3 C 10,0 C 89 % 1015,3 hPa 0,0 l/m 0 min 0 min 0,0 UV-I 0 W/m 0,0 km/h (0 Bft)
26.06.2014 04:04 11,3 C 10,0 C 89 % 1015,3 hPa 0,0 l/m 0 min 0 min 0,0 UV-I 0 W/m 0,0 km/h (0 Bft)
26.06.2014 04:06 11,3 C 10,0 C 89 % 1015,3 hPa 0,0 l/m 0 min 0 min 0,0 UV-I 0 W/m 0,0 km/h (0 Bft)
26.06.2014 04:08 11,3 C 10,0 C 89 % 1015,2 hPa 0,0 l/m 0 min 0 min 0,0 UV-I 0 W/m 0,0 km/h (0 Bft)
26.06.2014 04:10 11,3 C 10,0 C 89 % 1015,2 hPa 0,0 l/m 0 min 0 min 0,0 UV-I 0 W/m 0,0 km/h (0 Bft)
26.06.2014 04:12 11,3 C 10,0 C 89 % 1015,2 hPa 0,0 l/m 0 min 0 min 0,0 UV-I 0 W/m 0,0 km/h (0 Bft)
26.06.2014 04:14 11,3 C 10,0 C 89 % 1015,2 hPa 0,0 l/m 0 min 0 min 0,0 UV-I 0 W/m 0,0 km/h (0 Bft)
26.06.2014 04:16 11,3 C 10,0 C 89 % 1015,2 hPa 0,0 l/m 0 min 0 min 0,0 UV-I 0 W/m 0,0 km/h (0 Bft)
26.06.2014 04:18 11,3 C 10,0 C 89 % 1015,2 hPa 0,0 l/m 0 min 0 min 0,0 UV-I 0 W/m 0,0 km/h (0 Bft)
26.06.2014 04:20 11,3 C 10,0 C 89 % 1015,3 hPa 0,0 l/m 0 min 0 min 0,0 UV-I 0 W/m 0,0 km/h (0 Bft)
26.06.2014 04:22 11,3 C 10,0 C 89 % 1015,2 hPa 0,0 l/m 0 min 0 min 0,0 UV-I 0 W/m 0,0 km/h (0 Bft)
26.06.2014 04:24 11,3 C 10,0 C 89 % 1015,3 hPa 0,0 l/m 0 min 0 min 0,0 UV-I 0 W/m 0,0 km/h (0 Bft)
26.06.2014 04:26 11,3 C 10,0 C 89 % 1015,3 hPa 0,0 l/m 0 min 0 min 0,0 UV-I 0 W/m 0,0 km/h (0 Bft)
26.06.2014 04:28 11,3 C 10,0 C 89 % 1015,3 hPa 0,0 l/m 0 min 0 min 0,0 UV-I 0 W/m 0,0 km/h (0 Bft)
26.06.2014 04:30 11,3 C 10,0 C 89 % 1015,3 hPa 0,0 l/m 0 min 0 min 0,0 UV-I 0 W/m 0,0 km/h (0 Bft)
26.06.2014 04:32 11,3 C 10,0 C 89 % 1015,3 hPa 0,0 l/m 0 min 0 min 0,0 UV-I 0 W/m 0,0 km/h (0 Bft)
26.06.2014 04:34 11,3 C 10,0 C 89 % 1015,2 hPa 0,0 l/m 0 min 0 min 0,0 UV-I 0 W/m 0,0 km/h (0 Bft)
26.06.2014 04:36 11,3 C 10,0 C 89 % 1015,2 hPa 0,0 l/m 0 min 0 min 0,0 UV-I 0 W/m 0,0 km/h (0 Bft)
26.06.2014 04:38 11,3 C 10,0 C 89 % 1015,2 hPa 0,0 l/m 0 min 0 min 0,0 UV-I 0 W/m 0,0 km/h (0 Bft)
26.06.2014 04:40 11,3 C 10,0 C 89 % 1015,2 hPa 0,0 l/m 0 min 0 min 0,0 UV-I 0 W/m 0,0 km/h (0 Bft)
26.06.2014 04:42 11,3 C 10,0 C 90 % 1015,1 hPa 0,0 l/m 0 min 0 min 0,0 UV-I 0 W/m 0,0 km/h (0 Bft)
26.06.2014 04:44 11,3 C 10,0 C 90 % 1015,1 hPa 0,0 l/m 0 min 0 min 0,0 UV-I 0 W/m 0,0 km/h (0 Bft)
26.06.2014 04:46 11,3 C 10,0 C 90 % 1015,1 hPa 0,0 l/m 0 min 0 min 0,0 UV-I 0 W/m 0,0 km/h (0 Bft)
26.06.2014 04:48 11,3 C 10,0 C 90 % 1015,1 hPa 0,0 l/m 0 min 0 min 0,0 UV-I 0 W/m 0,0 km/h (0 Bft)
26.06.2014 04:50 11,3 C 10,0 C 90 % 1015,2 hPa 0,0 l/m 0 min 0 min 0,0 UV-I 0 W/m 0,0 km/h (0 Bft)
26.06.2014 04:52 11,3 C 10,0 C 90 % 1015,2 hPa 0,0 l/m 0 min 0 min 0,0 UV-I 0 W/m 0,0 km/h (0 Bft)
26.06.2014 04:54 11,3 C 10,0 C 90 % 1015,1 hPa 0,0 l/m 0 min 0 min 0,0 UV-I 0 W/m 0,0 km/h (0 Bft)
26.06.2014 04:56 11,4 C 10,0 C 90 % 1015,2 hPa 0,0 l/m 0 min 0 min 0,0 UV-I 0 W/m 0,0 km/h (0 Bft)
26.06.2014 04:58 11,4 C 10,0 C 90 % 1015,2 hPa 0,0 l/m 0 min 0 min 0,0 UV-I 0 W/m 0,0 km/h (0 Bft)
26.06.2014 05:00 11,4 C 10,0 C 90 % 1015,1 hPa 0,0 l/m 0 min 0 min 0,0 UV-I 0 W/m 0,0 km/h (0 Bft)
26.06.2014 05:02 11,4 C 10,0 C 90 % 1015,1 hPa 0,0 l/m 0 min 0 min 0,0 UV-I 0 W/m 0,0 km/h (0 Bft)
26.06.2014 05:04 11,4 C 10,0 C 90 % 1015,1 hPa 0,0 l/m 0 min 0 min 0,0 UV-I 0 W/m 0,0 km/h (0 Bft)
26.06.2014 05:06 11,3 C 10,0 C 90 % 1015,1 hPa 0,0 l/m 0 min 0 min 0,0 UV-I 0 W/m 0,0 km/h (0 Bft)
26.06.2014 05:08 11,3 C 10,0 C 90 % 1015,1 hPa 0,0 l/m 0 min 0 min 0,0 UV-I 0 W/m 0,0 km/h (0 Bft)
26.06.2014 05:10 11,3 C 10,0 C 90 % 1015,1 hPa 0,0 l/m 0 min 0 min 0,0 UV-I 0 W/m 0,0 km/h (0 Bft)
26.06.2014 05:12 11,3 C 10,0 C 90 % 1015,1 hPa 0,0 l/m 0 min 0 min 0,0 UV-I 0 W/m 0,0 km/h (0 Bft)
26.06.2014 05:14 11,3 C 10,0 C 90 % 1015,1 hPa 0,0 l/m 0 min 0 min 0,0 UV-I 0 W/m 0,0 km/h (0 Bft)
26.06.2014 05:16 11,3 C 10,0 C 90 % 1015,2 hPa 0,0 l/m 0 min 0 min 0,0 UV-I 0 W/m 0,0 km/h (0 Bft)
26.06.2014 05:18 11,3 C 10,0 C 90 % 1015,2 hPa 0,0 l/m 0 min 0 min 0,0 UV-I 0 W/m 0,0 km/h (0 Bft)
26.06.2014 05:20 11,3 C 10,0 C 90 % 1015,2 hPa 0,0 l/m 0 min 0 min 0,0 UV-I 0 W/m 0,0 km/h (0 Bft)
26.06.2014 05:22 11,3 C 10,0 C 90 % 1015,2 hPa 0,0 l/m 0 min 0 min 0,0 UV-I 0 W/m 0,0 km/h (0 Bft)
26.06.2014 05:24 11,3 C 10,0 C 90 % 1015,2 hPa 0,0 l/m 0 min 0 min 0,0 UV-I 0 W/m 0,0 km/h (0 Bft)
26.06.2014 05:26 11,3 C 10,0 C 90 % 1015,2 hPa 0,0 l/m 0 min 0 min 0,0 UV-I 0 W/m 0,0 km/h (0 Bft)
26.06.2014 05:28 11,3 C 10,0 C 90 % 1015,2 hPa 0,0 l/m 0 min 0 min 0,0 UV-I 0 W/m 0,0 km/h (0 Bft)
26.06.2014 05:30 11,3 C 10,0 C 90 % 1015,2 hPa 0,0 l/m 0 min 0 min 0,0 UV-I 6 W/m 0,0 km/h (0 Bft)
26.06.2014 05:32 11,3 C 10,0 C 90 % 1015,1 hPa 0,0 l/m 0 min 0 min 0,0 UV-I 6 W/m 0,0 km/h (0 Bft)
26.06.2014 05:34 11,3 C 10,0 C 90 % 1015,1 hPa 0,0 l/m 0 min 0 min 0,0 UV-I 6 W/m 0,0 km/h (0 Bft)
26.06.2014 05:36 11,3 C 10,0 C 90 % 1015,2 hPa 0,0 l/m 0 min 0 min 0,0 UV-I 8 W/m 0,0 km/h (0 Bft)
26.06.2014 05:38 11,3 C 10,0 C 90 % 1015,2 hPa 0,0 l/m 0 min 0 min 0,0 UV-I 8 W/m 0,0 km/h (0 Bft)
26.06.2014 05:40 11,3 C 10,0 C 91 % 1015,2 hPa 0,0 l/m 0 min 0 min 0,0 UV-I 10 W/m 0,0 km/h (0 Bft)
26.06.2014 05:42 11,3 C 10,0 C 91 % 1015,2 hPa 0,0 l/m 0 min 0 min 0,0 UV-I 13 W/m 0,0 km/h (0 Bft)
26.06.2014 05:44 11,3 C 10,0 C 91 % 1015,2 hPa 0,0 l/m 0 min 0 min 0,0 UV-I 14 W/m 0,0 km/h (0 Bft)
26.06.2014 05:46 11,4 C 10,0 C 91 % 1015,2 hPa 0,0 l/m 0 min 0 min 0,0 UV-I 14 W/m 0,0 km/h (0 Bft)
26.06.2014 05:48 11,4 C 10,0 C 91 % 1015,2 hPa 0,0 l/m 0 min 0 min 0,0 UV-I 16 W/m 0,0 km/h (0 Bft)
26.06.2014 05:50 11,4 C 10,0 C 91 % 1015,2 hPa 0,0 l/m 0 min 0 min 0,0 UV-I 18 W/m 0,0 km/h (0 Bft)
26.06.2014 05:52 11,4 C 10,0 C 91 % 1015,2 hPa 0,0 l/m 0 min 0 min 0,0 UV-I 18 W/m 0,0 km/h (0 Bft)
26.06.2014 05:54 11,4 C 10,0 C 91 % 1015,2 hPa 0,0 l/m 0 min 0 min 0,0 UV-I 18 W/m 0,0 km/h (0 Bft)
26.06.2014 05:56 11,4 C 10,6 C 91 % 1015,1 hPa 0,0 l/m 0 min 0 min 0,0 UV-I 21 W/m 0,0 km/h (0 Bft)
26.06.2014 05:58 11,4 C 10,6 C 91 % 1015,1 hPa 0,0 l/m 0 min 0 min 0,0 UV-I 21 W/m 0,0 km/h (0 Bft)
26.06.2014 06:00 11,4 C 10,6 C 91 % 1015,1 hPa 0,0 l/m 0 min 0 min 0,0 UV-I 22 W/m 0,0 km/h (0 Bft)
26.06.2014 06:02 11,4 C 10,6 C 91 % 1015,1 hPa 0,0 l/m 0 min 0 min 0,0 UV-I 24 W/m 0,0 km/h (0 Bft)
26.06.2014 06:06 11,4 C 10,0 C 91 % 1015,2 hPa 0,0 l/m 0 min 0 min 0,0 UV-I 29 W/m 0,0 km/h (0 Bft)
26.06.2014 06:08 11,4 C 10,0 C 91 % 1015,1 hPa 0,0 l/m 0 min 0 min 0,0 UV-I 32 W/m 0,0 km/h (0 Bft)
26.06.2014 06:10 11,4 C 10,0 C 91 % 1015,1 hPa 0,0 l/m 0 min 0 min 0,0 UV-I 37 W/m 0,0 km/h (0 Bft)
26.06.2014 06:12 11,4 C 10,0 C 91 % 1015,2 hPa 0,0 l/m 0 min 0 min 0,0 UV-I 38 W/m 0,0 km/h (0 Bft)
26.06.2014 06:14 11,4 C 10,0 C 91 % 1015,2 hPa 0,0 l/m 0 min 0 min 0,0 UV-I 46 W/m 0,0 km/h (0 Bft)
26.06.2014 06:16 11,4 C 10,0 C 91 % 1015,2 hPa 0,0 l/m 0 min 0 min 0,0 UV-I 48 W/m 0,0 km/h (0 Bft)
26.06.2014 06:18 11,4 C 10,0 C 91 % 1015,2 hPa 0,0 l/m 0 min 0 min 0,0 UV-I 56 W/m 0,0 km/h (0 Bft)
26.06.2014 06:20 11,4 C 10,0 C 91 % 1015,1 hPa 0,0 l/m 0 min 0 min 0,0 UV-I 64 W/m 0,0 km/h (0 Bft)
26.06.2014 06:22 11,5 C 10,6 C 91 % 1015,1 hPa 0,0 l/m 0 min 0 min 0,0 UV-I 67 W/m 0,0 km/h (0 Bft)
26.06.2014 06:24 11,5 C 10,6 C 91 % 1015,2 hPa 0,0 l/m 2 min 0 min 0,0 UV-I 101 W/m 0,0 km/h (0 Bft)
26.06.2014 06:26 11,5 C 10,6 C 91 % 1015,2 hPa 0,0 l/m 2 min 0 min 0,0 UV-I 101 W/m 0,0 km/h (0 Bft)
26.06.2014 06:28 11,6 C 10,6 C 91 % 1015,2 hPa 0,0 l/m 2 min 0 min 0,0 UV-I 95 W/m 2,1 km/h (1 Bft)
26.06.2014 06:30 11,6 C 10,6 C 91 % 1015,2 hPa 0,0 l/m 2 min 0 min 0,0 UV-I 95 W/m 0,0 km/h (0 Bft)
26.06.2014 06:32 11,7 C 10,6 C 91 % 1015,2 hPa 0,0 l/m 2 min 0 min 0,0 UV-I 95 W/m 0,0 km/h (0 Bft)
26.06.2014 06:34 11,7 C 11,1 C 91 % 1015,2 hPa 0,0 l/m 2 min 0 min 0,0 UV-I 105 W/m 0,0 km/h (0 Bft)
26.06.2014 06:36 11,8 C 11,1 C 91 % 1015,2 hPa 0,0 l/m 2 min 0 min 0,0 UV-I 128 W/m 2,1 km/h (1 Bft)
26.06.2014 06:38 11,9 C 11,1 C 91 % 1015,3 hPa 0,0 l/m 2 min 0 min 0,0 UV-I 121 W/m 0,0 km/h (0 Bft)
26.06.2014 06:40 11,9 C 11,1 C 91 % 1015,3 hPa 0,0 l/m 0 min 0 min 0,0 UV-I 85 W/m 0,0 km/h (0 Bft)
26.06.2014 06:42 12,0 C 11,1 C 90 % 1015,3 hPa 0,0 l/m 0 min 0 min 0,0 UV-I 83 W/m 2,1 km/h (1 Bft)
26.06.2014 06:44 12,0 C 11,1 C 90 % 1015,2 hPa 0,0 l/m 0 min 0 min 0,0 UV-I 87 W/m 0,0 km/h (0 Bft)
26.06.2014 06:46 12,1 C 11,1 C 90 % 1015,2 hPa 0,0 l/m 0 min 0 min 0,0 UV-I 89 W/m 2,1 km/h (1 Bft)
26.06.2014 06:48 12,1 C 11,1 C 90 % 1015,3 hPa 0,0 l/m 2 min 0 min 0,0 UV-I 105 W/m 10,5 km/h (2 Bft)
26.06.2014 06:50 12,1 C 11,7 C 89 % 1015,3 hPa 0,0 l/m 2 min 0 min 0,0 UV-I 178 W/m 8,4 km/h (2 Bft)
26.06.2014 06:52 12,2 C 11,7 C 89 % 1015,4 hPa 0,0 l/m 2 min 0 min 0,0 UV-I 210 W/m 8,4 km/h (2 Bft)
26.06.2014 06:54 12,2 C 11,7 C 89 % 1015,4 hPa 0,0 l/m 2 min 0 min 0,0 UV-I 214 W/m 4,2 km/h (1 Bft)
26.06.2014 06:56 12,2 C 11,7 C 88 % 1015,4 hPa 0,0 l/m 2 min 0 min 0,0 UV-I 117 W/m 8,4 km/h (2 Bft)
26.06.2014 06:58 12,3 C 11,7 C 88 % 1015,4 hPa 0,0 l/m 2 min 0 min 0,0 UV-I 115 W/m 6,3 km/h (2 Bft)
26.06.2014 07:00 12,3 C 11,7 C 88 % 1015,4 hPa 0,0 l/m 2 min 0 min 0,0 UV-I 121 W/m 0,0 km/h (0 Bft)
26.06.2014 07:02 12,4 C 11,7 C 88 % 1015,4 hPa 0,0 l/m 0 min 0 min 0,0 UV-I 117 W/m 8,4 km/h (2 Bft)
26.06.2014 07:04 12,4 C 11,7 C 88 % 1015,5 hPa 0,0 l/m 0 min 0 min 0,0 UV-I 117 W/m 8,4 km/h (2 Bft)
26.06.2014 07:06 12,5 C 11,7 C 88 % 1015,5 hPa 0,0 l/m 0 min 0 min 0,0 UV-I 115 W/m 8,4 km/h (2 Bft)
26.06.2014 07:08 12,6 C 12,2 C 87 % 1015,4 hPa 0,0 l/m 0 min 0 min 0,0 UV-I 115 W/m 10,5 km/h (2 Bft)
26.06.2014 07:10 12,6 C 12,2 C 87 % 1015,5 hPa 0,0 l/m 0 min 0 min 0,0 UV-I 117 W/m 12,6 km/h (3 Bft)
26.06.2014 07:12 12,7 C 12,2 C 87 % 1015,4 hPa 0,0 l/m 0 min 0 min 0,0 UV-I 121 W/m 10,5 km/h (2 Bft)
26.06.2014 07:14 12,7 C 12,2 C 87 % 1015,4 hPa 0,0 l/m 0 min 0 min 0,0 UV-I 128 W/m 10,5 km/h (2 Bft)
26.06.2014 07:16 12,7 C 12,2 C 86 % 1015,4 hPa 0,0 l/m 0 min 0 min 0,0 UV-I 133 W/m 8,4 km/h (2 Bft)
26.06.2014 07:18 12,8 C 12,2 C 86 % 1015,4 hPa 0,0 l/m 2 min 0 min 0,0 UV-I 147 W/m 8,4 km/h (2 Bft)
26.06.2014 07:20 12,8 C 12,2 C 86 % 1015,4 hPa 0,0 l/m 2 min 0 min 0,0 UV-I 154 W/m 8,4 km/h (2 Bft)
26.06.2014 07:22 12,9 C 12,2 C 86 % 1015,4 hPa 0,0 l/m 2 min 0 min 0,0 UV-I 174 W/m 2,1 km/h (1 Bft)
26.06.2014 07:24 12,9 C 12,2 C 86 % 1015,4 hPa 0,0 l/m 2 min 0 min 0,0 UV-I 222 W/m 8,4 km/h (2 Bft)
26.06.2014 07:26 13,0 C 12,2 C 86 % 1015,3 hPa 0,0 l/m 2 min 0 min 0,0 UV-I 184 W/m 10,5 km/h (2 Bft)
26.06.2014 07:28 13,1 C 12,8 C 85 % 1015,3 hPa 0,0 l/m 2 min 0 min 0,0 UV-I 194 W/m 6,3 km/h (2 Bft)
26.06.2014 07:30 13,2 C 12,8 C 85 % 1015,2 hPa 0,0 l/m 2 min 0 min 0,0 UV-I 198 W/m 8,4 km/h (2 Bft)
26.06.2014 07:32 13,2 C 12,8 C 85 % 1015,2 hPa 0,0 l/m 2 min 0 min 0,0 UV-I 202 W/m 8,4 km/h (2 Bft)
26.06.2014 07:34 13,3 C 12,8 C 85 % 1015,2 hPa 0,0 l/m 2 min 0 min 0,0 UV-I 205 W/m 8,4 km/h (2 Bft)
26.06.2014 07:36 13,4 C 12,8 C 85 % 1015,2 hPa 0,0 l/m 2 min 0 min 0,0 UV-I 229 W/m 0,0 km/h (0 Bft)
26.06.2014 07:38 13,4 C 12,8 C 85 % 1015,2 hPa 0,0 l/m 2 min 0 min 0,0 UV-I 237 W/m 10,5 km/h (2 Bft)
26.06.2014 07:40 13,5 C 12,8 C 85 % 1015,2 hPa 0,0 l/m 2 min 0 min 0,0 UV-I 243 W/m 8,4 km/h (2 Bft)
26.06.2014 07:42 13,6 C 12,8 C 84 % 1015,2 hPa 0,0 l/m 2 min 0 min 0,0 UV-I 232 W/m 8,4 km/h (2 Bft)
26.06.2014 07:44 13,7 C 13,3 C 83 % 1015,4 hPa 0,0 l/m 2 min 0 min 0,0 UV-I 222 W/m 14,6 km/h (3 Bft)
26.06.2014 07:46 13,7 C 13,3 C 83 % 1015,4 hPa 0,0 l/m 2 min 0 min 0,0 UV-I 221 W/m 8,4 km/h (2 Bft)
26.06.2014 07:48 13,7 C 13,3 C 83 % 1015,3 hPa 0,0 l/m 2 min 0 min 0,0 UV-I 208 W/m 12,6 km/h (3 Bft)
26.06.2014 07:50 13,7 C 13,3 C 82 % 1015,4 hPa 0,0 l/m 2 min 0 min 0,0 UV-I 208 W/m 12,6 km/h (3 Bft)
26.06.2014 07:52 13,8 C 13,3 C 82 % 1015,3 hPa 0,0 l/m 0 min 0 min 0,0 UV-I 183 W/m 14,6 km/h (3 Bft)
26.06.2014 07:54 13,8 C 13,3 C 82 % 1015,4 hPa 0,0 l/m 0 min 0 min 0,0 UV-I 179 W/m 12,6 km/h (3 Bft)
26.06.2014 07:56 13,8 C 13,3 C 82 % 1015,4 hPa 0,0 l/m 0 min 0 min 0,0 UV-I 176 W/m 10,5 km/h (2 Bft)
26.06.2014 07:58 13,9 C 13,3 C 82 % 1015,4 hPa 0,0 l/m 0 min 0 min 0,0 UV-I 179 W/m 10,5 km/h (2 Bft)
26.06.2014 08:00 13,9 C 13,3 C 82 % 1015,4 hPa 0,0 l/m 0 min 0 min 0,0 UV-I 185 W/m 10,5 km/h (2 Bft)
26.06.2014 08:02 14,1 C 13,9 C 83 % 1015,4 hPa 0,0 l/m 0 min 0 min 0,0 UV-I 186 W/m 8,4 km/h (2 Bft)
26.06.2014 08:04 14,1 C 13,9 C 82 % 1015,4 hPa 0,0 l/m 0 min 0 min 0,0 UV-I 190 W/m 10,5 km/h (2 Bft)
26.06.2014 08:06 14,2 C 13,9 C 82 % 1015,5 hPa 0,0 l/m 0 min 0 min 0,0 UV-I 188 W/m 8,4 km/h (2 Bft)
26.06.2014 08:08 14,2 C 13,9 C 82 % 1015,4 hPa 0,0 l/m 0 min 0 min 0,0 UV-I 186 W/m 14,6 km/h (3 Bft)
26.06.2014 08:10 14,2 C 13,9 C 81 % 1015,5 hPa 0,0 l/m 0 min 0 min 0,0 UV-I 186 W/m 10,5 km/h (2 Bft)
26.06.2014 08:12 14,2 C 13,9 C 81 % 1015,5 hPa 0,0 l/m 0 min 0 min 0,0 UV-I 188 W/m 10,5 km/h (2 Bft)
26.06.2014 08:14 14,2 C 13,3 C 81 % 1015,5 hPa 0,0 l/m 0 min 0 min 0,0 UV-I 186 W/m 8,4 km/h (2 Bft)
26.06.2014 08:16 14,2 C 13,3 C 81 % 1015,5 hPa 0,0 l/m 0 min 0 min 0,0 UV-I 174 W/m 10,5 km/h (2 Bft)
26.06.2014 08:18 14,2 C 13,3 C 82 % 1015,5 hPa 0,0 l/m 0 min 0 min 0,0 UV-I 156 W/m 14,6 km/h (3 Bft)
26.06.2014 08:20 14,2 C 13,3 C 82 % 1015,5 hPa 0,0 l/m 0 min 0 min 0,0 UV-I 148 W/m 14,6 km/h (3 Bft)
26.06.2014 08:22 14,2 C 13,3 C 82 % 1015,5 hPa 0,0 l/m 0 min 0 min 0,0 UV-I 153 W/m 12,6 km/h (3 Bft)
26.06.2014 08:24 14,2 C 13,3 C 82 % 1015,5 hPa 0,0 l/m 0 min 0 min 0,0 UV-I 207 W/m 8,4 km/h (2 Bft)
26.06.2014 08:26 14,2 C 13,3 C 82 % 1015,5 hPa 0,0 l/m 2 min 0 min 0,0 UV-I 267 W/m 10,5 km/h (2 Bft)
26.06.2014 08:28 14,2 C 13,3 C 82 % 1015,5 hPa 0,0 l/m 2 min 0 min 0,0 UV-I 373 W/m 10,5 km/h (2 Bft)
26.06.2014 08:30 14,2 C 13,3 C 82 % 1015,5 hPa 0,0 l/m 2 min 0 min 0,0 UV-I 410 W/m 6,3 km/h (2 Bft)
26.06.2014 08:32 14,3 C 13,3 C 82 % 1015,4 hPa 0,0 l/m 2 min 0 min 0,0 UV-I 415 W/m 12,6 km/h (3 Bft)
26.06.2014 08:34 14,5 C 13,3 C 82 % 1015,5 hPa 0,0 l/m 2 min 0 min 0,0 UV-I 418 W/m 10,5 km/h (2 Bft)
26.06.2014 08:36 14,6 C 13,3 C 81 % 1015,5 hPa 0,0 l/m 2 min 0 min 0,5 UV-I 418 W/m 10,5 km/h (2 Bft)
26.06.2014 08:38 14,7 C 13,3 C 81 % 1015,5 hPa 0,0 l/m 2 min 0 min 0,5 UV-I 422 W/m 10,5 km/h (2 Bft)
26.06.2014 08:40 14,9 C 13,3 C 80 % 1015,5 hPa 0,0 l/m 2 min 0 min 0,5 UV-I 429 W/m 6,3 km/h (2 Bft)
26.06.2014 08:42 15,0 C 13,9 C 80 % 1015,5 hPa 0,0 l/m 2 min 0 min 0,6 UV-I 436 W/m 8,4 km/h (2 Bft)
26.06.2014 08:44 15,2 C 13,9 C 79 % 1015,4 hPa 0,0 l/m 2 min 0 min 0,6 UV-I 436 W/m 10,5 km/h (2 Bft)
26.06.2014 08:46 15,4 C 13,9 C 79 % 1015,4 hPa 0,0 l/m 2 min 0 min 0,6 UV-I 441 W/m 8,4 km/h (2 Bft)
26.06.2014 08:48 15,5 C 13,9 C 78 % 1015,5 hPa 0,0 l/m 2 min 0 min 0,6 UV-I 443 W/m 10,5 km/h (2 Bft)
26.06.2014 08:50 15,7 C 13,9 C 78 % 1015,4 hPa 0,0 l/m 2 min 0 min 0,7 UV-I 445 W/m 8,4 km/h (2 Bft)
26.06.2014 08:52 15,8 C 13,9 C 78 % 1015,4 hPa 0,0 l/m 2 min 0 min 0,7 UV-I 457 W/m 8,4 km/h (2 Bft)
26.06.2014 08:54 15,9 C 14,4 C 77 % 1015,4 hPa 0,0 l/m 2 min 0 min 0,7 UV-I 461 W/m 10,5 km/h (2 Bft)
26.06.2014 08:56 16,0 C 14,4 C 76 % 1015,4 hPa 0,0 l/m 2 min 0 min 0,8 UV-I 466 W/m 12,6 km/h (3 Bft)
26.06.2014 08:58 15,9 C 14,4 C 75 % 1015,4 hPa 0,0 l/m 2 min 0 min 0,8 UV-I 468 W/m 14,6 km/h (3 Bft)
26.06.2014 09:00 16,0 C 14,4 C 77 % 1015,4 hPa 0,0 l/m 2 min 0 min 0,8 UV-I 469 W/m 12,6 km/h (3 Bft)
26.06.2014 09:02 16,1 C 14,4 C 76 % 1015,4 hPa 0,0 l/m 2 min 0 min 0,8 UV-I 475 W/m 12,6 km/h (3 Bft)
26.06.2014 09:04 16,3 C 14,4 C 75 % 1015,4 hPa 0,0 l/m 2 min 0 min 0,9 UV-I 482 W/m 10,5 km/h (2 Bft)
26.06.2014 09:06 16,4 C 14,4 C 75 % 1015,4 hPa 0,0 l/m 2 min 0 min 0,9 UV-I 487 W/m 10,5 km/h (2 Bft)
26.06.2014 09:08 16,5 C 14,4 C 75 % 1015,4 hPa 0,0 l/m 2 min 0 min 0,9 UV-I 489 W/m 8,4 km/h (2 Bft)
26.06.2014 09:10 16,6 C 15,0 C 75 % 1015,5 hPa 0,0 l/m 2 min 0 min 1,0 UV-I 494 W/m 12,6 km/h (3 Bft)
26.06.2014 09:12 16,7 C 15,0 C 76 % 1015,5 hPa 0,0 l/m 2 min 0 min 1,0 UV-I 483 W/m 14,6 km/h (3 Bft)
26.06.2014 09:14 16,8 C 15,0 C 74 % 1015,4 hPa 0,0 l/m 2 min 0 min 1,0 UV-I 480 W/m 12,6 km/h (3 Bft)
26.06.2014 09:16 16,8 C 15,0 C 74 % 1015,4 hPa 0,0 l/m 2 min 0 min 1,0 UV-I 490 W/m 8,4 km/h (2 Bft)
26.06.2014 09:18 16,9 C 15,0 C 74 % 1015,5 hPa 0,0 l/m 2 min 0 min 1,1 UV-I 515 W/m 8,4 km/h (2 Bft)
26.06.2014 09:20 17,0 C 15,0 C 74 % 1015,5 hPa 0,0 l/m 2 min 0 min 1,2 UV-I 531 W/m 10,5 km/h (2 Bft)
26.06.2014 09:22 17,0 C 15,0 C 74 % 1015,5 hPa 0,0 l/m 2 min 0 min 1,2 UV-I 536 W/m 6,3 km/h (2 Bft)
26.06.2014 09:24 17,1 C 15,0 C 73 % 1015,5 hPa 0,0 l/m 2 min 0 min 1,2 UV-I 536 W/m 6,3 km/h (2 Bft)
26.06.2014 09:26 17,2 C 15,6 C 73 % 1015,5 hPa 0,0 l/m 2 min 0 min 1,3 UV-I 534 W/m 12,6 km/h (3 Bft)
26.06.2014 09:28 17,4 C 15,6 C 73 % 1015,5 hPa 0,0 l/m 2 min 0 min 1,2 UV-I 503 W/m 10,5 km/h (2 Bft)
26.06.2014 09:30 17,3 C 15,6 C 71 % 1015,4 hPa 0,0 l/m 2 min 0 min 1,3 UV-I 522 W/m 6,3 km/h (2 Bft)
26.06.2014 09:32 17,4 C 15,6 C 72 % 1015,5 hPa 0,0 l/m 2 min 0 min 1,2 UV-I 489 W/m 14,6 km/h (3 Bft)
26.06.2014 09:34 17,3 C 15,6 C 71 % 1015,5 hPa 0,0 l/m 2 min 0 min 1,4 UV-I 534 W/m 8,4 km/h (2 Bft)
26.06.2014 09:36 17,3 C 15,6 C 73 % 1015,5 hPa 0,0 l/m 2 min 0 min 1,4 UV-I 552 W/m 12,6 km/h (3 Bft)
26.06.2014 09:38 17,4 C 16,1 C 73 % 1015,5 hPa 0,0 l/m 2 min 0 min 1,5 UV-I 559 W/m 12,6 km/h (3 Bft)
26.06.2014 09:40 17,4 C 16,1 C 72 % 1015,5 hPa 0,0 l/m 2 min 0 min 1,5 UV-I 564 W/m 10,5 km/h (2 Bft)
26.06.2014 09:42 17,6 C 16,1 C 73 % 1015,5 hPa 0,0 l/m 2 min 0 min 1,5 UV-I 570 W/m 12,6 km/h (3 Bft)
26.06.2014 09:44 17,8 C 16,7 C 73 % 1015,5 hPa 0,0 l/m 2 min 0 min 1,6 UV-I 577 W/m 4,2 km/h (1 Bft)
26.06.2014 09:46 18,1 C 16,7 C 72 % 1015,5 hPa 0,0 l/m 2 min 0 min 1,6 UV-I 584 W/m 10,5 km/h (2 Bft)
26.06.2014 09:48 18,1 C 16,7 C 70 % 1015,5 hPa 0,0 l/m 2 min 0 min 1,6 UV-I 580 W/m 6,3 km/h (2 Bft)
26.06.2014 09:50 18,1 C 16,7 C 71 % 1015,5 hPa 0,0 l/m 2 min 0 min 1,7 UV-I 589 W/m 12,6 km/h (3 Bft)
26.06.2014 09:52 18,2 C 16,7 C 71 % 1015,5 hPa 0,0 l/m 2 min 0 min 1,7 UV-I 594 W/m 12,6 km/h (3 Bft)
26.06.2014 09:54 18,1 C 17,2 C 71 % 1015,5 hPa 0,0 l/m 2 min 0 min 1,8 UV-I 596 W/m 14,6 km/h (3 Bft)
26.06.2014 09:56 18,3 C 17,2 C 71 % 1015,6 hPa 0,0 l/m 2 min 0 min 1,8 UV-I 601 W/m 10,5 km/h (2 Bft)
26.06.2014 09:58 18,4 C 17,8 C 71 % 1015,6 hPa 0,0 l/m 2 min 0 min 1,8 UV-I 599 W/m 8,4 km/h (2 Bft)
26.06.2014 10:00 18,4 C 17,8 C 71 % 1015,5 hPa 0,0 l/m 2 min 0 min 1,9 UV-I 606 W/m 10,5 km/h (2 Bft)
26.06.2014 10:02 18,4 C 18,3 C 69 % 1015,5 hPa 0,0 l/m 2 min 0 min 1,9 UV-I 608 W/m 12,6 km/h (3 Bft)
26.06.2014 10:04 18,5 C 18,9 C 70 % 1015,5 hPa 0,0 l/m 2 min 0 min 1,9 UV-I 612 W/m 6,3 km/h (2 Bft)
26.06.2014 10:06 18,8 C 20,6 C 70 % 1015,5 hPa 0,0 l/m 2 min 0 min 2,0 UV-I 617 W/m 10,5 km/h (2 Bft)
26.06.2014 10:08 18,7 C 21,1 C 67 % 1015,5 hPa 0,0 l/m 2 min 0 min 2,0 UV-I 624 W/m 10,5 km/h (2 Bft)
26.06.2014 10:10 18,6 C 20,6 C 69 % 1015,5 hPa 0,0 l/m 2 min 0 min 2,1 UV-I 631 W/m 6,3 km/h (2 Bft)
26.06.2014 10:12 18,8 C 20,6 C 69 % 1015,5 hPa 0,0 l/m 2 min 0 min 2,1 UV-I 635 W/m 6,3 km/h (2 Bft)
26.06.2014 10:14 18,9 C 20,0 C 68 % 1015,5 hPa 0,0 l/m 2 min 0 min 2,1 UV-I 631 W/m 6,3 km/h (2 Bft)
26.06.2014 10:16 18,9 C 20,0 C 67 % 1015,4 hPa 0,0 l/m 2 min 0 min 2,2 UV-I 635 W/m 6,3 km/h (2 Bft)
26.06.2014 10:18 19,1 C 20,0 C 66 % 1015,5 hPa 0,0 l/m 2 min 0 min 2,2 UV-I 638 W/m 8,4 km/h (2 Bft)
26.06.2014 10:20 19,2 C 20,6 C 68 % 1015,4 hPa 0,0 l/m 2 min 0 min 2,2 UV-I 640 W/m 2,1 km/h (1 Bft)
26.06.2014 10:22 19,2 C 20,6 C 66 % 1015,5 hPa 0,0 l/m 2 min 0 min 2,3 UV-I 657 W/m 0,0 km/h (0 Bft)
26.06.2014 10:24 19,1 C 21,1 C 67 % 1015,4 hPa 0,0 l/m 2 min 0 min 2,3 UV-I 663 W/m 10,5 km/h (2 Bft)
26.06.2014 10:26 19,0 C 21,1 C 65 % 1015,4 hPa 0,0 l/m 2 min 0 min 2,4 UV-I 664 W/m 14,6 km/h (3 Bft)
26.06.2014 10:28 19,1 C 21,1 C 66 % 1015,4 hPa 0,0 l/m 2 min 0 min 2,4 UV-I 664 W/m 10,5 km/h (2 Bft)
26.06.2014 10:30 19,2 C 20,6 C 67 % 1015,5 hPa 0,0 l/m 2 min 0 min 2,4 UV-I 663 W/m 12,6 km/h (3 Bft)
26.06.2014 10:32 19,4 C 20,6 C 65 % 1015,5 hPa 0,0 l/m 2 min 0 min 2,5 UV-I 675 W/m 6,3 km/h (2 Bft)
26.06.2014 10:34 19,4 C 20,6 C 66 % 1015,4 hPa 0,0 l/m 2 min 0 min 2,5 UV-I 679 W/m 8,4 km/h (2 Bft)
26.06.2014 10:36 19,5 C 21,1 C 64 % 1015,4 hPa 0,0 l/m 2 min 0 min 2,6 UV-I 684 W/m 10,5 km/h (2 Bft)
26.06.2014 10:38 19,7 C 21,1 C 62 % 1015,4 hPa 0,0 l/m 2 min 0 min 2,6 UV-I 694 W/m 2,1 km/h (1 Bft)
26.06.2014 10:40 19,7 C 22,2 C 62 % 1015,4 hPa 0,0 l/m 2 min 0 min 2,7 UV-I 707 W/m 2,1 km/h (1 Bft)
26.06.2014 10:42 19,6 C 22,8 C 61 % 1015,4 hPa 0,0 l/m 2 min 0 min 2,7 UV-I 712 W/m 0,0 km/h (0 Bft)
26.06.2014 10:44 19,7 C 22,2 C 63 % 1015,4 hPa 0,0 l/m 2 min 0 min 2,8 UV-I 714 W/m 2,1 km/h (1 Bft)
26.06.2014 10:46 19,8 C 22,2 C 61 % 1015,4 hPa 0,0 l/m 2 min 0 min 2,8 UV-I 717 W/m 8,4 km/h (2 Bft)
26.06.2014 10:48 19,6 C 21,1 C 60 % 1015,4 hPa 0,0 l/m 2 min 0 min 2,8 UV-I 719 W/m 6,3 km/h (2 Bft)
26.06.2014 10:50 19,3 C 21,1 C 63 % 1015,4 hPa 0,0 l/m 2 min 0 min 2,9 UV-I 719 W/m 6,3 km/h (2 Bft)
26.06.2014 10:52 19,6 C 21,7 C 65 % 1015,4 hPa 0,0 l/m 2 min 0 min 2,9 UV-I 721 W/m 0,0 km/h (0 Bft)
26.06.2014 10:54 20,0 C 22,2 C 64 % 1015,4 hPa 0,0 l/m 2 min 0 min 3,0 UV-I 737 W/m 8,4 km/h (2 Bft)
26.06.2014 10:56 20,4 C 22,2 C 63 % 1015,4 hPa 0,0 l/m 2 min 0 min 3,1 UV-I 754 W/m 8,4 km/h (2 Bft)
26.06.2014 10:58 20,1 C 22,8 C 58 % 1015,4 hPa 0,0 l/m 2 min 0 min 3,1 UV-I 763 W/m 6,3 km/h (2 Bft)
26.06.2014 11:00 19,9 C 23,3 C 59 % 1015,4 hPa 0,0 l/m 2 min 0 min 3,2 UV-I 777 W/m 4,2 km/h (1 Bft)
26.06.2014 11:02 20,1 C 23,9 C 61 % 1015,4 hPa 0,0 l/m 2 min 0 min 3,2 UV-I 789 W/m 6,3 km/h (2 Bft)
26.06.2014 11:04 20,1 C 24,4 C 61 % 1015,4 hPa 0,0 l/m 2 min 0 min 3,2 UV-I 789 W/m 4,2 km/h (1 Bft)
26.06.2014 11:06 20,1 C 25,6 C 58 % 1015,4 hPa 0,0 l/m 2 min 0 min 3,2 UV-I 791 W/m 8,4 km/h (2 Bft)
26.06.2014 11:08 20,0 C 25,0 C 57 % 1015,4 hPa 0,0 l/m 2 min 0 min 3,2 UV-I 800 W/m 2,1 km/h (1 Bft)
26.06.2014 11:10 19,8 C 25,0 C 59 % 1015,4 hPa 0,0 l/m 2 min 0 min 3,2 UV-I 809 W/m 0,0 km/h (0 Bft)
26.06.2014 11:12 19,9 C 26,1 C 60 % 1015,4 hPa 0,0 l/m 2 min 0 min 3,3 UV-I 814 W/m 0,0 km/h (0 Bft)
26.06.2014 11:14 20,4 C 26,7 C 63 % 1015,4 hPa 0,0 l/m 2 min 0 min 3,2 UV-I 795 W/m 8,4 km/h (2 Bft)
26.06.2014 11:16 20,5 C 25,6 C 57 % 1015,4 hPa 0,0 l/m 2 min 0 min 2,5 UV-I 747 W/m 10,5 km/h (2 Bft)
26.06.2014 11:18 20,4 C 24,4 C 60 % 1015,4 hPa 0,0 l/m 2 min 0 min 3,0 UV-I 747 W/m 10,5 km/h (2 Bft)
26.06.2014 11:20 20,4 C 25,0 C 57 % 1015,5 hPa 0,0 l/m 2 min 0 min 2,6 UV-I 854 W/m 12,6 km/h (3 Bft)
26.06.2014 11:22 20,3 C 23,9 C 57 % 1015,4 hPa 0,0 l/m 2 min 0 min 3,0 UV-I 854 W/m 10,5 km/h (2 Bft)
26.06.2014 11:24 20,0 C 22,8 C 57 % 1015,4 hPa 0,0 l/m 0 min 0 min 2,2 UV-I 237 W/m 10,5 km/h (2 Bft)
26.06.2014 11:26 19,7 C 21,7 C 59 % 1015,4 hPa 0,0 l/m 0 min 0 min 2,3 UV-I 279 W/m 6,3 km/h (2 Bft)
26.06.2014 11:28 19,4 C 21,1 C 60 % 1015,4 hPa 0,0 l/m 0 min 0 min 2,3 UV-I 264 W/m 0,0 km/h (0 Bft)
26.06.2014 11:30 19,2 C 21,7 C 59 % 1015,4 hPa 0,0 l/m 2 min 0 min 3,6 UV-I 807 W/m 0,0 km/h (0 Bft)
26.06.2014 11:32 19,2 C 22,8 C 60 % 1015,3 hPa 0,0 l/m 2 min 0 min 3,8 UV-I 870 W/m 10,5 km/h (2 Bft)
26.06.2014 11:34 19,9 C 23,3 C 62 % 1015,3 hPa 0,0 l/m 2 min 0 min 3,9 UV-I 900 W/m 14,6 km/h (3 Bft)
26.06.2014 11:36 20,3 C 23,3 C 61 % 1015,3 hPa 0,0 l/m 2 min 0 min 2,6 UV-I 854 W/m 12,6 km/h (3 Bft)
26.06.2014 11:38 20,4 C 22,8 C 58 % 1015,4 hPa 0,0 l/m 2 min 0 min 3,9 UV-I 853 W/m 12,6 km/h (3 Bft)
26.06.2014 11:40 20,5 C 22,8 C 58 % 1015,3 hPa 0,0 l/m 2 min 0 min 4,0 UV-I 865 W/m 10,5 km/h (2 Bft)
26.06.2014 11:42 20,7 C 23,3 C 57 % 1015,3 hPa 0,0 l/m 2 min 0 min 4,0 UV-I 840 W/m 8,4 km/h (2 Bft)
26.06.2014 11:44 20,5 C 23,9 C 57 % 1015,3 hPa 0,0 l/m 2 min 0 min 4,0 UV-I 851 W/m 16,7 km/h (3 Bft)
26.06.2014 11:46 20,7 C 24,4 C 58 % 1015,4 hPa 0,0 l/m 2 min 0 min 4,0 UV-I 861 W/m 12,6 km/h (3 Bft)
26.06.2014 11:48 20,7 C 25,6 C 55 % 1015,3 hPa 0,0 l/m 2 min 0 min 4,1 UV-I 875 W/m 8,4 km/h (2 Bft)
26.06.2014 11:50 21,0 C 26,1 C 58 % 1015,2 hPa 0,0 l/m 2 min 0 min 4,1 UV-I 879 W/m 10,5 km/h (2 Bft)
26.06.2014 11:52 21,2 C 26,7 C 55 % 1015,3 hPa 0,0 l/m 2 min 0 min 4,1 UV-I 861 W/m 14,6 km/h (3 Bft)
26.06.2014 11:54 21,2 C 26,7 C 55 % 1015,3 hPa 0,0 l/m 2 min 0 min 4,1 UV-I 847 W/m 8,4 km/h (2 Bft)
26.06.2014 11:56 21,2 C 27,2 C 57 % 1015,3 hPa 0,0 l/m 2 min 0 min 4,1 UV-I 849 W/m 10,5 km/h (2 Bft)
26.06.2014 11:58 21,2 C 26,7 C 55 % 1015,4 hPa 0,0 l/m 2 min 0 min 4,1 UV-I 840 W/m 12,6 km/h (3 Bft)
26.06.2014 12:00 21,4 C 27,2 C 54 % 1015,3 hPa 0,0 l/m 2 min 0 min 4,1 UV-I 838 W/m 14,6 km/h (3 Bft)
26.06.2014 12:02 21,4 C 27,2 C 53 % 1015,3 hPa 0,0 l/m 2 min 0 min 4,2 UV-I 851 W/m 10,5 km/h (2 Bft)
26.06.2014 12:06 20,7 C 26,7 C 51 % 1015,3 hPa 0,0 l/m 2 min 0 min 4,2 UV-I 844 W/m 12,6 km/h (3 Bft)
26.06.2014 12:08 21,0 C 27,2 C 55 % 1015,3 hPa 0,0 l/m 2 min 0 min 4,3 UV-I 851 W/m 14,6 km/h (3 Bft)
26.06.2014 12:10 21,2 C 27,2 C 55 % 1015,2 hPa 0,0 l/m 2 min 0 min 4,3 UV-I 860 W/m 12,6 km/h (3 Bft)
26.06.2014 12:12 20,7 C 27,2 C 53 % 1015,3 hPa 0,0 l/m 2 min 0 min 4,3 UV-I 858 W/m 0,0 km/h (0 Bft)
26.06.2014 12:14 20,8 C 27,2 C 55 % 1015,2 hPa 0,0 l/m 2 min 0 min 4,3 UV-I 861 W/m 8,4 km/h (2 Bft)
26.06.2014 12:16 21,0 C 27,2 C 56 % 1015,3 hPa 0,0 l/m 2 min 0 min 4,4 UV-I 870 W/m 8,4 km/h (2 Bft)
26.06.2014 12:18 21,2 C 27,2 C 55 % 1015,2 hPa 0,0 l/m 2 min 0 min 4,4 UV-I 877 W/m 0,0 km/h (0 Bft)
26.06.2014 12:20 21,4 C 28,3 C 55 % 1015,2 hPa 0,0 l/m 2 min 0 min 4,4 UV-I 884 W/m 0,0 km/h (0 Bft)
26.06.2014 12:22 21,5 C 27,8 C 54 % 1015,2 hPa 0,0 l/m 2 min 0 min 4,3 UV-I 812 W/m 10,5 km/h (2 Bft)
26.06.2014 12:24 21,4 C 27,2 C 55 % 1015,1 hPa 0,0 l/m 2 min 0 min 3,3 UV-I 812 W/m 14,6 km/h (3 Bft)
26.06.2014 12:26 21,2 C 26,7 C 53 % 1015,1 hPa 0,0 l/m 0 min 0 min 3,0 UV-I 281 W/m 12,6 km/h (3 Bft)
26.06.2014 12:28 20,9 C 26,7 C 54 % 1015,2 hPa 0,0 l/m 0 min 0 min 2,8 UV-I 281 W/m 20,9 km/h (4 Bft)
26.06.2014 12:30 20,9 C 25,0 C 55 % 1015,1 hPa 0,0 l/m 0 min 0 min 2,4 UV-I 179 W/m 14,6 km/h (3 Bft)
26.06.2014 12:32 20,5 C 24,4 C 53 % 1015,1 hPa 0,0 l/m 2 min 0 min 3,0 UV-I 896 W/m 12,6 km/h (3 Bft)
26.06.2014 12:34 20,2 C 24,4 C 55 % 1015,1 hPa 0,0 l/m 2 min 0 min 4,3 UV-I 844 W/m 10,5 km/h (2 Bft)
26.06.2014 12:36 20,1 C 24,4 C 54 % 1015,1 hPa 0,0 l/m 2 min 0 min 4,5 UV-I 849 W/m 16,7 km/h (3 Bft)
26.06.2014 12:38 20,4 C 25,0 C 54 % 1015,0 hPa 0,0 l/m 2 min 0 min 4,5 UV-I 861 W/m 16,7 km/h (3 Bft)
26.06.2014 12:40 20,8 C 25,6 C 53 % 1015,0 hPa 0,0 l/m 2 min 0 min 4,7 UV-I 879 W/m 14,6 km/h (3 Bft)
26.06.2014 12:42 21,2 C 26,1 C 55 % 1014,9 hPa 0,0 l/m 2 min 0 min 4,6 UV-I 868 W/m 14,6 km/h (3 Bft)
26.06.2014 12:44 21,4 C 26,7 C 53 % 1015,0 hPa 0,0 l/m 2 min 0 min 4,6 UV-I 875 W/m 6,3 km/h (2 Bft)
26.06.2014 12:46 21,7 C 27,2 C 55 % 1014,9 hPa 0,0 l/m 2 min 0 min 4,6 UV-I 865 W/m 0,0 km/h (0 Bft)
26.06.2014 12:48 21,9 C 27,2 C 50 % 1014,9 hPa 0,0 l/m 2 min 0 min 4,7 UV-I 870 W/m 4,2 km/h (1 Bft)
26.06.2014 12:50 21,9 C 27,2 C 51 % 1014,9 hPa 0,0 l/m 2 min 0 min 4,5 UV-I 817 W/m 8,4 km/h (2 Bft)
26.06.2014 12:52 21,6 C 26,7 C 51 % 1014,9 hPa 0,0 l/m 2 min 0 min 4,7 UV-I 870 W/m 6,3 km/h (2 Bft)
26.06.2014 12:54 21,6 C 26,1 C 53 % 1014,9 hPa 0,0 l/m 2 min 0 min 4,7 UV-I 872 W/m 6,3 km/h (2 Bft)
26.06.2014 12:56 21,9 C 26,1 C 53 % 1014,8 hPa 0,0 l/m 2 min 0 min 3,3 UV-I 863 W/m 8,4 km/h (2 Bft)
26.06.2014 12:58 21,8 C 25,6 C 54 % 1014,8 hPa 0,0 l/m 2 min 0 min 2,7 UV-I 830 W/m 8,4 km/h (2 Bft)
26.06.2014 13:00 22,3 C 26,1 C 55 % 1014,8 hPa 0,0 l/m 2 min 0 min 4,6 UV-I 735 W/m 14,6 km/h (3 Bft)
26.06.2014 13:02 22,2 C 25,6 C 53 % 1014,8 hPa 0,0 l/m 2 min 0 min 4,9 UV-I 868 W/m 6,3 km/h (2 Bft)
26.06.2014 13:04 22,3 C 25,6 C 49 % 1014,8 hPa 0,0 l/m 2 min 0 min 4,7 UV-I 819 W/m 14,6 km/h (3 Bft)
26.06.2014 13:06 22,1 C 25,6 C 49 % 1014,8 hPa 0,0 l/m 2 min 0 min 4,7 UV-I 826 W/m 20,9 km/h (4 Bft)
26.06.2014 13:08 22,2 C 25,6 C 48 % 1014,8 hPa 0,0 l/m 2 min 0 min 4,9 UV-I 791 W/m 16,7 km/h (3 Bft)
26.06.2014 13:10 22,1 C 25,0 C 47 % 1014,8 hPa 0,0 l/m 2 min 0 min 4,7 UV-I 893 W/m 14,6 km/h (3 Bft)
26.06.2014 13:12 22,2 C 25,6 C 48 % 1014,8 hPa 0,0 l/m 2 min 0 min 4,6 UV-I 893 W/m 14,6 km/h (3 Bft)
26.06.2014 13:14 22,2 C 26,1 C 48 % 1014,8 hPa 0,0 l/m 2 min 0 min 4,9 UV-I 923 W/m 14,6 km/h (3 Bft)
26.06.2014 13:16 22,1 C 26,7 C 49 % 1014,8 hPa 0,0 l/m 2 min 0 min 4,8 UV-I 905 W/m 12,6 km/h (3 Bft)
26.06.2014 13:18 22,2 C 27,2 C 48 % 1014,8 hPa 0,0 l/m 2 min 0 min 4,8 UV-I 918 W/m 10,5 km/h (2 Bft)
26.06.2014 13:20 22,0 C 26,1 C 47 % 1014,8 hPa 0,0 l/m 2 min 0 min 4,8 UV-I 902 W/m 14,6 km/h (3 Bft)
26.06.2014 13:22 21,8 C 24,4 C 47 % 1014,7 hPa 0,0 l/m 2 min 0 min 4,7 UV-I 916 W/m 10,5 km/h (2 Bft)
26.06.2014 13:24 21,5 C 23,9 C 48 % 1014,7 hPa 0,0 l/m 2 min 0 min 4,8 UV-I 909 W/m 12,6 km/h (3 Bft)
26.06.2014 13:26 21,1 C 22,8 C 50 % 1014,7 hPa 0,0 l/m 2 min 0 min 4,8 UV-I 911 W/m 6,3 km/h (2 Bft)
26.06.2014 13:28 21,1 C 23,3 C 50 % 1014,7 hPa 0,0 l/m 2 min 0 min 4,6 UV-I 891 W/m 10,5 km/h (2 Bft)
26.06.2014 13:30 21,6 C 23,3 C 52 % 1014,7 hPa 0,0 l/m 2 min 0 min 4,7 UV-I 889 W/m 14,6 km/h (3 Bft)
26.06.2014 13:32 22,1 C 23,9 C 52 % 1014,7 hPa 0,0 l/m 2 min 0 min 4,5 UV-I 877 W/m 14,6 km/h (3 Bft)
26.06.2014 13:34 22,6 C 24,4 C 51 % 1014,7 hPa 0,0 l/m 2 min 0 min 4,5 UV-I 872 W/m 14,6 km/h (3 Bft)
26.06.2014 13:36 22,4 C 23,3 C 49 % 1014,7 hPa 0,0 l/m 2 min 0 min 4,4 UV-I 858 W/m 12,6 km/h (3 Bft)
26.06.2014 13:38 22,3 C 23,3 C 49 % 1014,7 hPa 0,0 l/m 2 min 0 min 4,6 UV-I 911 W/m 14,6 km/h (3 Bft)
26.06.2014 13:40 22,3 C 23,3 C 50 % 1014,8 hPa 0,0 l/m 0 min 0 min 3,3 UV-I 299 W/m 14,6 km/h (3 Bft)
26.06.2014 13:42 22,0 C 22,8 C 48 % 1014,7 hPa 0,0 l/m 0 min 0 min 4,0 UV-I 299 W/m 18,8 km/h (3 Bft)
26.06.2014 13:44 21,7 C 23,3 C 50 % 1014,7 hPa 0,0 l/m 2 min 0 min 4,6 UV-I 907 W/m 8,4 km/h (2 Bft)
26.06.2014 13:46 22,1 C 23,3 C 52 % 1014,7 hPa 0,0 l/m 2 min 0 min 4,5 UV-I 889 W/m 14,6 km/h (3 Bft)
26.06.2014 13:48 22,6 C 23,9 C 50 % 1014,6 hPa 0,0 l/m 2 min 0 min 4,5 UV-I 865 W/m 12,6 km/h (3 Bft)
26.06.2014 13:50 22,7 C 23,9 C 51 % 1014,6 hPa 0,0 l/m 2 min 0 min 4,5 UV-I 914 W/m 14,6 km/h (3 Bft)
26.06.2014 13:52 22,7 C 24,4 C 48 % 1014,6 hPa 0,0 l/m 2 min 0 min 4,4 UV-I 867 W/m 16,7 km/h (3 Bft)
26.06.2014 13:54 23,1 C 24,4 C 51 % 1014,6 hPa 0,0 l/m 2 min 0 min 4,6 UV-I 923 W/m 12,6 km/h (3 Bft)
26.06.2014 13:56 23,4 C 24,4 C 51 % 1014,6 hPa 0,0 l/m 2 min 0 min 4,6 UV-I 900 W/m 14,6 km/h (3 Bft)
26.06.2014 13:58 23,1 C 24,4 C 48 % 1014,6 hPa 0,0 l/m 2 min 0 min 4,5 UV-I 902 W/m 14,6 km/h (3 Bft)
26.06.2014 14:00 23,2 C 25,0 C 50 % 1014,6 hPa 0,0 l/m 2 min 0 min 4,4 UV-I 896 W/m 23,0 km/h (4 Bft)
26.06.2014 14:02 23,2 C 25,0 C 49 % 1014,6 hPa 0,0 l/m 2 min 0 min 4,4 UV-I 870 W/m 16,7 km/h (3 Bft)
26.06.2014 14:04 23,2 C 24,4 C 49 % 1014,6 hPa 0,0 l/m 2 min 0 min 4,2 UV-I 867 W/m 12,6 km/h (3 Bft)
26.06.2014 14:06 22,9 C 24,4 C 47 % 1014,6 hPa 0,0 l/m 2 min 0 min 4,2 UV-I 872 W/m 10,5 km/h (2 Bft)
26.06.2014 14:08 22,4 C 23,9 C 51 % 1014,5 hPa 0,0 l/m 2 min 0 min 4,4 UV-I 907 W/m 10,5 km/h (2 Bft)
26.06.2014 14:10 22,2 C 24,4 C 46 % 1014,5 hPa 0,0 l/m 2 min 0 min 4,6 UV-I 939 W/m 2,1 km/h (1 Bft)
26.06.2014 14:12 22,3 C 26,1 C 51 % 1014,5 hPa 0,0 l/m 2 min 0 min 4,5 UV-I 921 W/m 14,6 km/h (3 Bft)
26.06.2014 14:14 22,8 C 27,8 C 49 % 1014,5 hPa 0,0 l/m 2 min 0 min 4,5 UV-I 918 W/m 14,6 km/h (3 Bft)
26.06.2014 14:16 23,2 C 29,4 C 48 % 1014,5 hPa 0,0 l/m 2 min 0 min 4,4 UV-I 907 W/m 16,7 km/h (3 Bft)
26.06.2014 14:18 23,3 C 30,6 C 46 % 1014,5 hPa 0,0 l/m 2 min 0 min 4,4 UV-I 919 W/m 12,6 km/h (3 Bft)
26.06.2014 14:20 23,2 C 30,6 C 45 % 1014,4 hPa 0,0 l/m 2 min 0 min 4,4 UV-I 937 W/m 14,6 km/h (3 Bft)
26.06.2014 14:22 23,1 C 31,7 C 46 % 1014,4 hPa 0,0 l/m 2 min 0 min 4,1 UV-I 939 W/m 8,4 km/h (2 Bft)
26.06.2014 14:24 22,7 C 30,6 C 47 % 1014,4 hPa 0,0 l/m 2 min 0 min 4,0 UV-I 925 W/m 6,3 km/h (2 Bft)
26.06.2014 14:26 22,4 C 28,3 C 47 % 1014,4 hPa 0,0 l/m 2 min 0 min 3,8 UV-I 925 W/m 8,4 km/h (2 Bft)
26.06.2014 14:28 22,5 C 27,8 C 49 % 1014,4 hPa 0,0 l/m 0 min 0 min 2,7 UV-I 343 W/m 12,6 km/h (3 Bft)
26.06.2014 14:30 22,4 C 27,8 C 48 % 1014,4 hPa 0,0 l/m 0 min 0 min 2,5 UV-I 343 W/m 12,6 km/h (3 Bft)
26.06.2014 14:32 22,1 C 26,1 C 48 % 1014,4 hPa 0,0 l/m 2 min 0 min 2,5 UV-I 489 W/m 10,5 km/h (2 Bft)
26.06.2014 14:34 21,9 C 25,6 C 50 % 1014,4 hPa 0,0 l/m 0 min 0 min 3,8 UV-I 214 W/m 8,4 km/h (2 Bft)
26.06.2014 14:36 21,8 C 25,6 C 48 % 1014,4 hPa 0,0 l/m 0 min 0 min 2,5 UV-I 214 W/m 10,5 km/h (2 Bft)
26.06.2014 14:38 21,4 C 23,9 C 48 % 1014,4 hPa 0,0 l/m 0 min 0 min 3,2 UV-I 225 W/m 10,5 km/h (2 Bft)
26.06.2014 14:40 21,2 C 24,4 C 49 % 1014,4 hPa 0,0 l/m 0 min 0 min 3,7 UV-I 387 W/m 16,7 km/h (3 Bft)
26.06.2014 14:42 21,3 C 25,0 C 50 % 1014,4 hPa 0,0 l/m 2 min 0 min 4,0 UV-I 830 W/m 10,5 km/h (2 Bft)
26.06.2014 14:44 21,3 C 25,0 C 49 % 1014,4 hPa 0,0 l/m 2 min 0 min 4,0 UV-I 772 W/m 14,6 km/h (3 Bft)
26.06.2014 14:46 21,3 C 25,0 C 49 % 1014,4 hPa 0,0 l/m 2 min 0 min 4,0 UV-I 838 W/m 8,4 km/h (2 Bft)
26.06.2014 14:48 21,5 C 24,4 C 49 % 1014,4 hPa 0,0 l/m 2 min 0 min 3,9 UV-I 791 W/m 16,7 km/h (3 Bft)
26.06.2014 14:50 21,8 C 23,9 C 50 % 1014,4 hPa 0,0 l/m 2 min 0 min 4,0 UV-I 863 W/m 14,6 km/h (3 Bft)
26.06.2014 14:52 22,1 C 23,9 C 52 % 1014,4 hPa 0,0 l/m 2 min 0 min 4,0 UV-I 861 W/m 14,6 km/h (3 Bft)
26.06.2014 14:54 22,3 C 23,3 C 46 % 1014,4 hPa 0,0 l/m 2 min 0 min 4,0 UV-I 823 W/m 18,8 km/h (3 Bft)
26.06.2014 14:56 21,9 C 23,9 C 46 % 1014,4 hPa 0,0 l/m 2 min 0 min 3,8 UV-I 798 W/m 8,4 km/h (2 Bft)
26.06.2014 14:58 22,2 C 24,4 C 48 % 1014,5 hPa 0,0 l/m 2 min 0 min 3,6 UV-I 765 W/m 10,5 km/h (2 Bft)
26.06.2014 15:00 22,2 C 25,0 C 49 % 1014,4 hPa 0,0 l/m 2 min 0 min 3,5 UV-I 664 W/m 10,5 km/h (2 Bft)
26.06.2014 15:02 22,3 C 25,0 C 48 % 1014,4 hPa 0,0 l/m 2 min 0 min 3,4 UV-I 647 W/m 10,5 km/h (2 Bft)
26.06.2014 15:04 22,7 C 26,1 C 49 % 1014,4 hPa 0,0 l/m 2 min 0 min 3,6 UV-I 647 W/m 14,6 km/h (3 Bft)
26.06.2014 15:06 22,7 C 26,7 C 45 % 1014,4 hPa 0,0 l/m 2 min 0 min 3,7 UV-I 824 W/m 16,7 km/h (3 Bft)
26.06.2014 15:08 22,9 C 26,7 C 47 % 1014,3 hPa 0,0 l/m 2 min 0 min 3,7 UV-I 807 W/m 20,9 km/h (4 Bft)
26.06.2014 15:10 23,1 C 26,1 C 44 % 1014,4 hPa 0,0 l/m 2 min 0 min 3,6 UV-I 810 W/m 16,7 km/h (3 Bft)
26.06.2014 15:12 23,1 C 25,6 C 43 % 1014,4 hPa 0,0 l/m 2 min 0 min 3,5 UV-I 805 W/m 12,6 km/h (3 Bft)
26.06.2014 15:14 22,9 C 26,1 C 46 % 1014,3 hPa 0,0 l/m 2 min 0 min 3,5 UV-I 800 W/m 8,4 km/h (2 Bft)
26.06.2014 15:16 23,1 C 27,2 C 46 % 1014,3 hPa 0,0 l/m 2 min 0 min 3,5 UV-I 796 W/m 16,7 km/h (3 Bft)
26.06.2014 15:18 23,2 C 27,2 C 44 % 1014,4 hPa 0,0 l/m 2 min 0 min 3,3 UV-I 754 W/m 10,5 km/h (2 Bft)
26.06.2014 15:20 23,4 C 27,8 C 47 % 1014,3 hPa 0,0 l/m 2 min 0 min 3,3 UV-I 780 W/m 8,4 km/h (2 Bft)
26.06.2014 15:22 23,5 C 27,8 C 49 % 1014,3 hPa 0,0 l/m 2 min 0 min 3,3 UV-I 784 W/m 14,6 km/h (3 Bft)
26.06.2014 15:24 23,7 C 26,7 C 45 % 1014,4 hPa 0,0 l/m 2 min 0 min 3,3 UV-I 784 W/m 8,4 km/h (2 Bft)
26.06.2014 15:26 23,3 C 25,6 C 44 % 1014,3 hPa 0,0 l/m 2 min 0 min 3,2 UV-I 763 W/m 12,6 km/h (3 Bft)
26.06.2014 15:28 23,3 C 26,7 C 45 % 1014,3 hPa 0,0 l/m 2 min 0 min 3,2 UV-I 707 W/m 12,6 km/h (3 Bft)
26.06.2014 15:30 23,1 C 26,1 C 45 % 1014,4 hPa 0,0 l/m 2 min 0 min 3,1 UV-I 751 W/m 10,5 km/h (2 Bft)
26.06.2014 15:32 23,2 C 25,6 C 47 % 1014,3 hPa 0,0 l/m 2 min 0 min 2,9 UV-I 821 W/m 14,6 km/h (3 Bft)
26.06.2014 15:34 22,8 C 24,4 C 47 % 1014,3 hPa 0,0 l/m 0 min 0 min 2,1 UV-I 332 W/m 14,6 km/h (3 Bft)
26.06.2014 15:36 22,4 C 23,3 C 47 % 1014,3 hPa 0,0 l/m 0 min 0 min 1,9 UV-I 297 W/m 10,5 km/h (2 Bft)
26.06.2014 15:38 22,2 C 23,3 C 47 % 1014,4 hPa 0,0 l/m 0 min 0 min 1,9 UV-I 290 W/m 4,2 km/h (1 Bft)
26.06.2014 15:40 22,0 C 22,8 C 46 % 1014,3 hPa 0,0 l/m 0 min 0 min 1,8 UV-I 279 W/m 8,4 km/h (2 Bft)
26.06.2014 15:42 22,1 C 22,8 C 50 % 1014,2 hPa 0,0 l/m 0 min 0 min 1,7 UV-I 271 W/m 6,3 km/h (2 Bft)
26.06.2014 15:44 21,9 C 22,8 C 48 % 1014,3 hPa 0,0 l/m 0 min 0 min 1,6 UV-I 271 W/m 8,4 km/h (2 Bft)
26.06.2014 15:46 21,8 C 22,8 C 48 % 1014,3 hPa 0,0 l/m 0 min 0 min 1,6 UV-I 274 W/m 0,0 km/h (0 Bft)
26.06.2014 15:48 21,7 C 22,2 C 47 % 1014,2 hPa 0,0 l/m 0 min 0 min 1,7 UV-I 281 W/m 0,0 km/h (0 Bft)
26.06.2014 15:50 21,7 C 22,2 C 48 % 1014,2 hPa 0,0 l/m 0 min 0 min 1,7 UV-I 272 W/m 0,0 km/h (0 Bft)
26.06.2014 15:52 21,6 C 21,7 C 47 % 1014,2 hPa 0,0 l/m 0 min 0 min 1,8 UV-I 360 W/m 8,4 km/h (2 Bft)
26.06.2014 15:54 21,4 C 21,7 C 49 % 1014,2 hPa 0,0 l/m 0 min 0 min 1,7 UV-I 260 W/m 10,5 km/h (2 Bft)
26.06.2014 15:56 21,4 C 21,7 C 49 % 1014,2 hPa 0,0 l/m 0 min 0 min 1,7 UV-I 267 W/m 10,5 km/h (2 Bft)
26.06.2014 15:58 21,4 C 21,7 C 49 % 1014,3 hPa 0,0 l/m 2 min 0 min 2,0 UV-I 527 W/m 12,6 km/h (3 Bft)
26.06.2014 16:00 21,4 C 21,7 C 49 % 1014,2 hPa 0,0 l/m 2 min 0 min 2,5 UV-I 689 W/m 2,1 km/h (1 Bft)
26.06.2014 16:02 21,7 C 22,2 C 52 % 1014,2 hPa 0,0 l/m 2 min 0 min 2,5 UV-I 726 W/m 8,4 km/h (2 Bft)
26.06.2014 16:04 22,2 C 22,8 C 51 % 1014,2 hPa 0,0 l/m 2 min 0 min 2,4 UV-I 707 W/m 0,0 km/h (0 Bft)
26.06.2014 16:06 22,5 C 22,8 C 47 % 1014,2 hPa 0,0 l/m 2 min 0 min 2,3 UV-I 680 W/m 2,1 km/h (1 Bft)
26.06.2014 16:08 22,5 C 22,8 C 48 % 1014,2 hPa 0,0 l/m 2 min 0 min 2,4 UV-I 682 W/m 0,0 km/h (0 Bft)
26.06.2014 16:10 22,8 C 23,3 C 51 % 1014,1 hPa 0,0 l/m 2 min 0 min 2,3 UV-I 656 W/m 2,1 km/h (1 Bft)
26.06.2014 16:12 23,2 C 23,3 C 50 % 1014,1 hPa 0,0 l/m 2 min 0 min 2,2 UV-I 612 W/m 6,3 km/h (2 Bft)
26.06.2014 16:14 23,4 C 23,3 C 46 % 1014,1 hPa 0,0 l/m 2 min 0 min 2,1 UV-I 563 W/m 10,5 km/h (2 Bft)
26.06.2014 16:16 23,2 C 22,8 C 46 % 1014,1 hPa 0,0 l/m 2 min 0 min 2,2 UV-I 561 W/m 8,4 km/h (2 Bft)
26.06.2014 16:18 23,1 C 22,8 C 47 % 1014,1 hPa 0,0 l/m 2 min 0 min 2,2 UV-I 589 W/m 6,3 km/h (2 Bft)
26.06.2014 16:20 22,9 C 22,8 C 47 % 1014,1 hPa 0,0 l/m 2 min 0 min 2,3 UV-I 643 W/m 0,0 km/h (0 Bft)
26.06.2014 16:22 22,8 C 22,8 C 47 % 1014,2 hPa 0,0 l/m 2 min 0 min 2,3 UV-I 619 W/m 14,6 km/h (3 Bft)
26.06.2014 16:24 22,7 C 22,8 C 46 % 1014,2 hPa 0,0 l/m 2 min 0 min 2,3 UV-I 638 W/m 6,3 km/h (2 Bft)
26.06.2014 16:26 22,7 C 22,8 C 47 % 1014,2 hPa 0,0 l/m 2 min 0 min 2,2 UV-I 599 W/m 10,5 km/h (2 Bft)
26.06.2014 16:28 22,7 C 22,8 C 46 % 1014,2 hPa 0,0 l/m 2 min 0 min 2,3 UV-I 664 W/m 6,3 km/h (2 Bft)
26.06.2014 16:30 22,4 C 22,8 C 47 % 1014,2 hPa 0,0 l/m 2 min 0 min 2,2 UV-I 622 W/m 2,1 km/h (1 Bft)
26.06.2014 16:32 22,2 C 22,8 C 47 % 1014,1 hPa 0,0 l/m 2 min 0 min 2,0 UV-I 540 W/m 2,1 km/h (1 Bft)
26.06.2014 16:34 22,4 C 22,8 C 48 % 1014,1 hPa 0,0 l/m 2 min 0 min 2,0 UV-I 545 W/m 2,1 km/h (1 Bft)
26.06.2014 16:36 22,8 C 22,8 C 48 % 1014,0 hPa 0,0 l/m 2 min 0 min 2,0 UV-I 578 W/m 8,4 km/h (2 Bft)
26.06.2014 16:38 22,9 C 22,8 C 48 % 1014,0 hPa 0,0 l/m 2 min 0 min 2,1 UV-I 533 W/m 6,3 km/h (2 Bft)
26.06.2014 16:40 22,9 C 22,8 C 48 % 1014,0 hPa 0,0 l/m 2 min 0 min 2,2 UV-I 635 W/m 8,4 km/h (2 Bft)
26.06.2014 16:42 23,3 C 23,3 C 51 % 1014,0 hPa 0,0 l/m 2 min 0 min 2,0 UV-I 547 W/m 8,4 km/h (2 Bft)
26.06.2014 16:44 23,5 C 23,3 C 47 % 1014,0 hPa 0,0 l/m 2 min 0 min 2,0 UV-I 538 W/m 6,3 km/h (2 Bft)
26.06.2014 16:46 23,1 C 22,8 C 46 % 1013,9 hPa 0,0 l/m 2 min 0 min 1,9 UV-I 494 W/m 6,3 km/h (2 Bft)
26.06.2014 16:48 23,0 C 22,8 C 48 % 1014,0 hPa 0,0 l/m 2 min 0 min 1,7 UV-I 454 W/m 10,5 km/h (2 Bft)
26.06.2014 16:50 23,0 C 22,8 C 49 % 1014,0 hPa 0,0 l/m 2 min 0 min 1,7 UV-I 506 W/m 12,6 km/h (3 Bft)
26.06.2014 16:52 22,9 C 22,8 C 48 % 1013,9 hPa 0,0 l/m 2 min 0 min 1,5 UV-I 438 W/m 6,3 km/h (2 Bft)
26.06.2014 16:54 22,7 C 22,8 C 47 % 1013,8 hPa 0,0 l/m 2 min 0 min 1,4 UV-I 473 W/m 10,5 km/h (2 Bft)
26.06.2014 16:56 22,8 C 22,8 C 47 % 1013,9 hPa 0,0 l/m 2 min 0 min 1,4 UV-I 517 W/m 6,3 km/h (2 Bft)
26.06.2014 16:58 22,8 C 22,8 C 46 % 1013,8 hPa 0,0 l/m 2 min 0 min 1,4 UV-I 515 W/m 6,3 km/h (2 Bft)
26.06.2014 17:00 22,8 C 22,8 C 46 % 1013,8 hPa 0,0 l/m 2 min 0 min 1,3 UV-I 497 W/m 10,5 km/h (2 Bft)
26.06.2014 17:02 22,7 C 22,8 C 48 % 1013,8 hPa 0,0 l/m 2 min 0 min 1,3 UV-I 457 W/m 10,5 km/h (2 Bft)
26.06.2014 17:04 22,7 C 22,8 C 48 % 1013,8 hPa 0,0 l/m 2 min 0 min 1,3 UV-I 508 W/m 8,4 km/h (2 Bft)
26.06.2014 17:06 22,7 C 22,8 C 48 % 1013,8 hPa 0,0 l/m 2 min 0 min 1,3 UV-I 550 W/m 12,6 km/h (3 Bft)
26.06.2014 17:08 22,7 C 22,8 C 46 % 1013,8 hPa 0,0 l/m 2 min 0 min 1,3 UV-I 582 W/m 8,4 km/h (2 Bft)
26.06.2014 17:10 22,8 C 22,8 C 47 % 1013,8 hPa 0,0 l/m 2 min 0 min 1,2 UV-I 545 W/m 6,3 km/h (2 Bft)
26.06.2014 17:12 23,2 C 22,8 C 48 % 1013,8 hPa 0,0 l/m 2 min 0 min 1,2 UV-I 499 W/m 8,4 km/h (2 Bft)
26.06.2014 17:14 23,3 C 22,8 C 47 % 1013,8 hPa 0,0 l/m 2 min 0 min 1,1 UV-I 427 W/m 6,3 km/h (2 Bft)
26.06.2014 17:16 23,2 C 22,8 C 47 % 1013,7 hPa 0,0 l/m 2 min 0 min 1,1 UV-I 403 W/m 12,6 km/h (3 Bft)
26.06.2014 17:18 23,1 C 22,8 C 45 % 1013,8 hPa 0,0 l/m 2 min 0 min 1,0 UV-I 388 W/m 2,1 km/h (1 Bft)
26.06.2014 17:20 22,7 C 22,2 C 45 % 1013,7 hPa 0,0 l/m 2 min 0 min 1,0 UV-I 459 W/m 0,0 km/h (0 Bft)
26.06.2014 17:22 22,6 C 22,8 C 46 % 1013,7 hPa 0,0 l/m 2 min 0 min 1,1 UV-I 557 W/m 0,0 km/h (0 Bft)
26.06.2014 17:24 22,6 C 22,8 C 49 % 1013,7 hPa 0,0 l/m 2 min 0 min 1,1 UV-I 575 W/m 8,4 km/h (2 Bft)
26.06.2014 17:26 22,8 C 22,8 C 49 % 1013,7 hPa 0,0 l/m 2 min 0 min 1,1 UV-I 503 W/m 8,4 km/h (2 Bft)
26.06.2014 17:28 22,8 C 22,2 C 45 % 1013,7 hPa 0,0 l/m 2 min 0 min 1,0 UV-I 466 W/m 12,6 km/h (3 Bft)
26.06.2014 17:30 22,5 C 22,2 C 49 % 1013,7 hPa 0,0 l/m 2 min 0 min 1,0 UV-I 429 W/m 8,4 km/h (2 Bft)
26.06.2014 17:32 22,6 C 22,2 C 48 % 1013,6 hPa 0,0 l/m 2 min 0 min 1,0 UV-I 443 W/m 10,5 km/h (2 Bft)
26.06.2014 17:34 22,5 C 22,2 C 46 % 1013,6 hPa 0,0 l/m 2 min 0 min 0,9 UV-I 512 W/m 10,5 km/h (2 Bft)
26.06.2014 17:36 22,6 C 22,2 C 48 % 1013,6 hPa 0,0 l/m 2 min 0 min 0,9 UV-I 445 W/m 10,5 km/h (2 Bft)
26.06.2014 17:38 22,7 C 22,2 C 49 % 1013,6 hPa 0,0 l/m 2 min 0 min 0,8 UV-I 350 W/m 8,4 km/h (2 Bft)
26.06.2014 17:40 22,7 C 22,2 C 47 % 1013,7 hPa 0,0 l/m 2 min 0 min 0,8 UV-I 367 W/m 10,5 km/h (2 Bft)
26.06.2014 17:42 22,4 C 21,7 C 47 % 1013,6 hPa 0,0 l/m 2 min 0 min 0,8 UV-I 413 W/m 6,3 km/h (2 Bft)
26.06.2014 17:44 22,3 C 21,7 C 48 % 1013,6 hPa 0,0 l/m 2 min 0 min 0,8 UV-I 397 W/m 6,3 km/h (2 Bft)
26.06.2014 17:46 22,3 C 21,7 C 49 % 1013,6 hPa 0,0 l/m 2 min 0 min 0,7 UV-I 387 W/m 8,4 km/h (2 Bft)
26.06.2014 17:48 22,4 C 21,7 C 47 % 1013,6 hPa 0,0 l/m 2 min 0 min 0,7 UV-I 408 W/m 8,4 km/h (2 Bft)
26.06.2014 17:50 22,4 C 21,7 C 49 % 1013,6 hPa 0,0 l/m 2 min 0 min 0,7 UV-I 352 W/m 10,5 km/h (2 Bft)
26.06.2014 17:52 22,5 C 21,7 C 47 % 1013,6 hPa 0,0 l/m 2 min 0 min 0,7 UV-I 359 W/m 4,2 km/h (1 Bft)
26.06.2014 17:54 22,5 C 21,7 C 49 % 1013,6 hPa 0,0 l/m 2 min 0 min 0,6 UV-I 350 W/m 0,0 km/h (0 Bft)
26.06.2014 17:56 22,6 C 21,7 C 49 % 1013,6 hPa 0,0 l/m 2 min 0 min 0,6 UV-I 378 W/m 2,1 km/h (1 Bft)
26.06.2014 17:58 22,4 C 21,7 C 47 % 1013,6 hPa 0,0 l/m 2 min 0 min 0,6 UV-I 381 W/m 2,1 km/h (1 Bft)
26.06.2014 18:00 22,5 C 21,7 C 48 % 1013,5 hPa 0,0 l/m 2 min 0 min 0,6 UV-I 376 W/m 2,1 km/h (1 Bft)
26.06.2014 18:02 22,5 C 21,7 C 49 % 1013,5 hPa 0,0 l/m 2 min 0 min 0,6 UV-I 345 W/m 6,3 km/h (2 Bft)
26.06.2014 18:06 22,4 C 21,7 C 48 % 1013,5 hPa 0,0 l/m 2 min 0 min 0,6 UV-I 311 W/m 6,3 km/h (2 Bft)
26.06.2014 18:08 22,4 C 21,7 C 50 % 1013,5 hPa 0,0 l/m 2 min 0 min 0,6 UV-I 336 W/m 0,0 km/h (0 Bft)
26.06.2014 18:10 22,3 C 21,7 C 47 % 1013,5 hPa 0,0 l/m 2 min 0 min 0,6 UV-I 297 W/m 8,4 km/h (2 Bft)
26.06.2014 18:12 22,3 C 21,1 C 47 % 1013,5 hPa 0,0 l/m 2 min 0 min 0,5 UV-I 329 W/m 8,4 km/h (2 Bft)
26.06.2014 18:14 22,3 C 21,1 C 48 % 1013,5 hPa 0,0 l/m 2 min 0 min 0,5 UV-I 392 W/m 4,2 km/h (1 Bft)
26.06.2014 18:16 22,3 C 21,1 C 50 % 1013,5 hPa 0,0 l/m 2 min 0 min 0,5 UV-I 397 W/m 0,0 km/h (0 Bft)
26.06.2014 18:18 22,4 C 21,1 C 49 % 1013,6 hPa 0,0 l/m 2 min 0 min 0,5 UV-I 381 W/m 8,4 km/h (2 Bft)
26.06.2014 18:20 22,3 C 21,1 C 48 % 1013,5 hPa 0,0 l/m 2 min 0 min 0,5 UV-I 415 W/m 10,5 km/h (2 Bft)
26.06.2014 18:22 22,3 C 21,1 C 47 % 1013,5 hPa 0,0 l/m 2 min 0 min 0,5 UV-I 468 W/m 12,6 km/h (3 Bft)
26.06.2014 18:24 22,2 C 21,1 C 46 % 1013,5 hPa 0,0 l/m 2 min 0 min 0,0 UV-I 413 W/m 6,3 km/h (2 Bft)
26.06.2014 18:26 22,0 C 21,1 C 47 % 1013,5 hPa 0,0 l/m 2 min 0 min 0,0 UV-I 424 W/m 0,0 km/h (0 Bft)
26.06.2014 18:28 22,1 C 21,1 C 50 % 1013,4 hPa 0,0 l/m 2 min 0 min 0,0 UV-I 431 W/m 2,1 km/h (1 Bft)
26.06.2014 18:30 22,3 C 21,1 C 47 % 1013,5 hPa 0,0 l/m 2 min 0 min 0,0 UV-I 404 W/m 6,3 km/h (2 Bft)
26.06.2014 18:32 22,4 C 21,1 C 49 % 1013,5 hPa 0,0 l/m 2 min 0 min 0,0 UV-I 394 W/m 6,3 km/h (2 Bft)
26.06.2014 18:34 22,4 C 21,1 C 49 % 1013,5 hPa 0,0 l/m 2 min 0 min 0,0 UV-I 323 W/m 6,3 km/h (2 Bft)
26.06.2014 18:36 22,3 C 21,1 C 46 % 1013,4 hPa 0,0 l/m 2 min 0 min 0,0 UV-I 380 W/m 6,3 km/h (2 Bft)
26.06.2014 18:38 22,3 C 21,7 C 47 % 1013,4 hPa 0,0 l/m 2 min 0 min 0,0 UV-I 304 W/m 6,3 km/h (2 Bft)
26.06.2014 18:40 22,2 C 21,7 C 51 % 1013,4 hPa 0,0 l/m 2 min 0 min 0,0 UV-I 295 W/m 10,5 km/h (2 Bft)
26.06.2014 18:42 22,3 C 21,7 C 49 % 1013,4 hPa 0,0 l/m 2 min 0 min 0,0 UV-I 336 W/m 8,4 km/h (2 Bft)
26.06.2014 18:44 22,2 C 21,1 C 48 % 1013,5 hPa 0,0 l/m 2 min 0 min 0,0 UV-I 288 W/m 10,5 km/h (2 Bft)
26.06.2014 18:46 22,2 C 21,1 C 48 % 1013,4 hPa 0,0 l/m 2 min 0 min 0,0 UV-I 253 W/m 14,6 km/h (3 Bft)
26.06.2014 18:48 22,1 C 21,1 C 49 % 1013,4 hPa 0,0 l/m 2 min 0 min 0,0 UV-I 251 W/m 12,6 km/h (3 Bft)
26.06.2014 18:50 22,1 C 21,1 C 49 % 1013,4 hPa 0,0 l/m 2 min 0 min 0,0 UV-I 260 W/m 8,4 km/h (2 Bft)
26.06.2014 18:52 22,1 C 21,1 C 49 % 1013,4 hPa 0,0 l/m 2 min 0 min 0,0 UV-I 308 W/m 8,4 km/h (2 Bft)
26.06.2014 18:54 22,1 C 21,1 C 48 % 1013,4 hPa 0,0 l/m 2 min 0 min 0,0 UV-I 359 W/m 12,6 km/h (3 Bft)
26.06.2014 18:56 22,1 C 21,1 C 48 % 1013,5 hPa 0,0 l/m 2 min 0 min 0,0 UV-I 345 W/m 10,5 km/h (2 Bft)
26.06.2014 18:58 21,9 C 21,1 C 49 % 1013,4 hPa 0,0 l/m 2 min 0 min 0,0 UV-I 381 W/m 8,4 km/h (2 Bft)
26.06.2014 19:00 22,0 C 21,7 C 49 % 1013,4 hPa 0,0 l/m 2 min 0 min 0,0 UV-I 373 W/m 6,3 km/h (2 Bft)
26.06.2014 19:02 22,2 C 21,7 C 49 % 1013,4 hPa 0,0 l/m 2 min 0 min 0,0 UV-I 373 W/m 8,4 km/h (2 Bft)
26.06.2014 19:04 22,2 C 21,7 C 49 % 1013,4 hPa 0,0 l/m 2 min 0 min 0,0 UV-I 366 W/m 8,4 km/h (2 Bft)
26.06.2014 19:06 22,1 C 21,7 C 47 % 1013,5 hPa 0,0 l/m 2 min 0 min 0,0 UV-I 353 W/m 8,4 km/h (2 Bft)
26.06.2014 19:08 22,1 C 21,7 C 49 % 1013,4 hPa 0,0 l/m 2 min 0 min 0,0 UV-I 348 W/m 12,6 km/h (3 Bft)
26.06.2014 19:10 22,1 C 21,7 C 48 % 1013,5 hPa 0,0 l/m 2 min 0 min 0,0 UV-I 336 W/m 12,6 km/h (3 Bft)
26.06.2014 19:12 22,1 C 21,7 C 48 % 1013,4 hPa 0,0 l/m 2 min 0 min 0,0 UV-I 244 W/m 8,4 km/h (2 Bft)
26.06.2014 19:14 22,1 C 21,7 C 49 % 1013,4 hPa 0,0 l/m 2 min 0 min 0,0 UV-I 322 W/m 10,5 km/h (2 Bft)
26.06.2014 19:16 22,2 C 21,7 C 49 % 1013,4 hPa 0,0 l/m 2 min 0 min 0,0 UV-I 315 W/m 8,4 km/h (2 Bft)
26.06.2014 19:18 22,1 C 21,1 C 48 % 1013,5 hPa 0,0 l/m 2 min 0 min 0,0 UV-I 241 W/m 8,4 km/h (2 Bft)
26.06.2014 19:20 22,0 C 21,1 C 47 % 1013,5 hPa 0,0 l/m 0 min 0 min 0,0 UV-I 163 W/m 2,1 km/h (1 Bft)
26.06.2014 19:22 21,9 C 21,1 C 48 % 1013,5 hPa 0,0 l/m 0 min 0 min 0,0 UV-I 121 W/m 8,4 km/h (2 Bft)
26.06.2014 19:24 21,7 C 20,6 C 49 % 1013,5 hPa 0,0 l/m 0 min 0 min 0,0 UV-I 109 W/m 10,5 km/h (2 Bft)
26.06.2014 19:26 21,7 C 20,6 C 48 % 1013,5 hPa 0,0 l/m 0 min 0 min 0,0 UV-I 107 W/m 6,3 km/h (2 Bft)
26.06.2014 19:28 21,6 C 20,6 C 49 % 1013,5 hPa 0,0 l/m 0 min 0 min 0,0 UV-I 104 W/m 2,1 km/h (1 Bft)
26.06.2014 19:30 21,5 C 20,6 C 49 % 1013,5 hPa 0,0 l/m 0 min 0 min 0,0 UV-I 105 W/m 2,1 km/h (1 Bft)
26.06.2014 19:32 21,5 C 20,6 C 49 % 1013,6 hPa 0,0 l/m 0 min 0 min 0,0 UV-I 109 W/m 0,0 km/h (0 Bft)
26.06.2014 19:34 21,5 C 20,0 C 51 % 1013,5 hPa 0,0 l/m 0 min 0 min 0,0 UV-I 116 W/m 0,0 km/h (0 Bft)
26.06.2014 19:36 21,4 C 20,0 C 50 % 1013,5 hPa 0,0 l/m 0 min 0 min 0,0 UV-I 135 W/m 0,0 km/h (0 Bft)
26.06.2014 19:38 21,4 C 20,0 C 50 % 1013,5 hPa 0,0 l/m 0 min 0 min 0,0 UV-I 155 W/m 0,0 km/h (0 Bft)
26.06.2014 19:40 21,4 C 20,6 C 50 % 1013,6 hPa 0,0 l/m 2 min 0 min 0,0 UV-I 202 W/m 0,0 km/h (0 Bft)
26.06.2014 19:42 21,5 C 20,6 C 51 % 1013,6 hPa 0,0 l/m 2 min 0 min 0,0 UV-I 239 W/m 0,0 km/h (0 Bft)
26.06.2014 19:44 21,5 C 20,6 C 50 % 1013,5 hPa 0,0 l/m 2 min 0 min 0,0 UV-I 232 W/m 0,0 km/h (0 Bft)
26.06.2014 19:46 21,6 C 20,6 C 49 % 1013,6 hPa 0,0 l/m 2 min 0 min 0,0 UV-I 227 W/m 2,1 km/h (1 Bft)
26.06.2014 19:48 21,7 C 20,6 C 49 % 1013,6 hPa 0,0 l/m 2 min 0 min 0,0 UV-I 216 W/m 0,0 km/h (0 Bft)
26.06.2014 19:50 21,7 C 20,6 C 50 % 1013,6 hPa 0,0 l/m 2 min 0 min 0,0 UV-I 207 W/m 2,1 km/h (1 Bft)
26.06.2014 19:52 21,7 C 20,6 C 49 % 1013,5 hPa 0,0 l/m 2 min 0 min 0,0 UV-I 202 W/m 6,3 km/h (2 Bft)
26.06.2014 19:54 21,6 C 20,6 C 48 % 1013,6 hPa 0,0 l/m 2 min 0 min 0,0 UV-I 192 W/m 10,5 km/h (2 Bft)
26.06.2014 19:56 21,6 C 20,6 C 48 % 1013,6 hPa 0,0 l/m 2 min 0 min 0,0 UV-I 186 W/m 4,2 km/h (1 Bft)
26.06.2014 19:58 21,6 C 20,6 C 49 % 1013,5 hPa 0,0 l/m 2 min 0 min 0,0 UV-I 179 W/m 2,1 km/h (1 Bft)
26.06.2014 20:00 21,6 C 20,6 C 49 % 1013,5 hPa 0,0 l/m 2 min 0 min 0,0 UV-I 171 W/m 0,0 km/h (0 Bft)
26.06.2014 20:02 21,6 C 20,6 C 49 % 1013,6 hPa 0,0 l/m 2 min 0 min 0,0 UV-I 165 W/m 0,0 km/h (0 Bft)
26.06.2014 20:04 21,6 C 20,6 C 49 % 1013,5 hPa 0,0 l/m 2 min 0 min 0,0 UV-I 158 W/m 0,0 km/h (0 Bft)
26.06.2014 20:06 21,5 C 20,0 C 51 % 1013,6 hPa 0,0 l/m 2 min 0 min 0,0 UV-I 139 W/m 0,0 km/h (0 Bft)
26.06.2014 20:08 21,4 C 20,6 C 49 % 1013,5 hPa 0,0 l/m 0 min 0 min 0,0 UV-I 118 W/m 0,0 km/h (0 Bft)
26.06.2014 20:10 21,4 C 20,0 C 50 % 1013,6 hPa 0,0 l/m 0 min 0 min 0,0 UV-I 97 W/m 2,1 km/h (1 Bft)
26.06.2014 20:12 21,4 C 20,0 C 53 % 1013,6 hPa 0,0 l/m 0 min 0 min 0,0 UV-I 76 W/m 0,0 km/h (0 Bft)
26.06.2014 20:14 21,4 C 20,0 C 52 % 1013,5 hPa 0,0 l/m 0 min 0 min 0,0 UV-I 72 W/m 0,0 km/h (0 Bft)
26.06.2014 20:16 21,3 C 20,0 C 51 % 1013,5 hPa 0,0 l/m 0 min 0 min 0,0 UV-I 79 W/m 2,1 km/h (1 Bft)
26.06.2014 20:18 21,3 C 20,0 C 50 % 1013,6 hPa 0,0 l/m 0 min 0 min 0,0 UV-I 79 W/m 2,1 km/h (1 Bft)
26.06.2014 20:20 21,2 C 19,4 C 50 % 1013,6 hPa 0,0 l/m 0 min 0 min 0,0 UV-I 77 W/m 6,3 km/h (2 Bft)
26.06.2014 20:22 21,2 C 19,4 C 51 % 1013,6 hPa 0,0 l/m 0 min 0 min 0,0 UV-I 88 W/m 2,1 km/h (1 Bft)
26.06.2014 20:24 21,1 C 19,4 C 51 % 1013,6 hPa 0,0 l/m 0 min 0 min 0,0 UV-I 88 W/m 2,1 km/h (1 Bft)
26.06.2014 20:26 21,1 C 19,4 C 50 % 1013,6 hPa 0,0 l/m 0 min 0 min 0,0 UV-I 83 W/m 0,0 km/h (0 Bft)
26.06.2014 20:28 21,1 C 19,4 C 50 % 1013,6 hPa 0,0 l/m 0 min 0 min 0,0 UV-I 58 W/m 0,0 km/h (0 Bft)
26.06.2014 20:30 21,1 C 19,4 C 51 % 1013,6 hPa 0,0 l/m 0 min 0 min 0,0 UV-I 53 W/m 0,0 km/h (0 Bft)
26.06.2014 20:32 21,0 C 19,4 C 53 % 1013,6 hPa 0,0 l/m 0 min 0 min 0,0 UV-I 46 W/m 0,0 km/h (0 Bft)
26.06.2014 20:34 20,9 C 19,4 C 52 % 1013,6 hPa 0,0 l/m 0 min 0 min 0,0 UV-I 40 W/m 2,1 km/h (1 Bft)
26.06.2014 20:36 20,9 C 18,9 C 51 % 1013,6 hPa 0,0 l/m 0 min 0 min 0,0 UV-I 39 W/m 0,0 km/h (0 Bft)
26.06.2014 20:38 20,8 C 18,9 C 51 % 1013,6 hPa 0,0 l/m 0 min 0 min 0,0 UV-I 47 W/m 0,0 km/h (0 Bft)
26.06.2014 20:40 20,8 C 18,9 C 51 % 1013,6 hPa 0,0 l/m 0 min 0 min 0,0 UV-I 47 W/m 0,0 km/h (0 Bft)
26.06.2014 20:42 20,7 C 18,3 C 52 % 1013,6 hPa 0,0 l/m 0 min 0 min 0,0 UV-I 47 W/m 0,0 km/h (0 Bft)
26.06.2014 20:44 20,6 C 18,3 C 54 % 1013,6 hPa 0,0 l/m 0 min 0 min 0,0 UV-I 47 W/m 0,0 km/h (0 Bft)
26.06.2014 20:46 20,4 C 17,8 C 55 % 1013,6 hPa 0,0 l/m 0 min 0 min 0,0 UV-I 47 W/m 0,0 km/h (0 Bft)
26.06.2014 20:48 20,4 C 17,8 C 55 % 1013,6 hPa 0,0 l/m 0 min 0 min 0,0 UV-I 47 W/m 0,0 km/h (0 Bft)
26.06.2014 20:50 20,3 C 17,8 C 54 % 1013,6 hPa 0,0 l/m 0 min 0 min 0,0 UV-I 47 W/m 0,0 km/h (0 Bft)
26.06.2014 20:52 20,2 C 17,8 C 54 % 1013,6 hPa 0,0 l/m 0 min 0 min 0,0 UV-I 45 W/m 0,0 km/h (0 Bft)
26.06.2014 20:54 20,2 C 17,8 C 54 % 1013,6 hPa 0,0 l/m 0 min 0 min 0,0 UV-I 45 W/m 0,0 km/h (0 Bft)
26.06.2014 20:56 20,1 C 17,8 C 54 % 1013,6 hPa 0,0 l/m 0 min 0 min 0,0 UV-I 42 W/m 0,0 km/h (0 Bft)
26.06.2014 20:58 20,1 C 17,2 C 56 % 1013,6 hPa 0,0 l/m 0 min 0 min 0,0 UV-I 38 W/m 0,0 km/h (0 Bft)
26.06.2014 21:00 19,9 C 17,2 C 55 % 1013,6 hPa 0,0 l/m 0 min 0 min 0,0 UV-I 36 W/m 0,0 km/h (0 Bft)
26.06.2014 21:02 19,9 C 17,2 C 54 % 1013,6 hPa 0,0 l/m 0 min 0 min 0,0 UV-I 33 W/m 2,1 km/h (1 Bft)
26.06.2014 21:04 19,9 C 17,2 C 54 % 1013,6 hPa 0,0 l/m 0 min 0 min 0,0 UV-I 32 W/m 0,0 km/h (0 Bft)
26.06.2014 21:06 19,8 C 17,2 C 57 % 1013,6 hPa 0,0 l/m 0 min 0 min 0,0 UV-I 27 W/m 0,0 km/h (0 Bft)
26.06.2014 21:08 19,7 C 17,2 C 55 % 1013,6 hPa 0,0 l/m 0 min 0 min 0,0 UV-I 24 W/m 0,0 km/h (0 Bft)
26.06.2014 21:10 19,7 C 16,7 C 57 % 1013,7 hPa 0,0 l/m 0 min 0 min 0,0 UV-I 23 W/m 0,0 km/h (0 Bft)
26.06.2014 21:12 19,6 C 16,7 C 58 % 1013,7 hPa 0,0 l/m 0 min 0 min 0,0 UV-I 23 W/m 0,0 km/h (0 Bft)
26.06.2014 21:14 19,5 C 16,7 C 58 % 1013,7 hPa 0,0 l/m 0 min 0 min 0,0 UV-I 23 W/m 0,0 km/h (0 Bft)
26.06.2014 21:16 19,4 C 16,7 C 59 % 1013,7 hPa 0,0 l/m 0 min 0 min 0,0 UV-I 20 W/m 0,0 km/h (0 Bft)
26.06.2014 21:18 19,3 C 16,7 C 59 % 1013,6 hPa 0,0 l/m 0 min 0 min 0,0 UV-I 20 W/m 0,0 km/h (0 Bft)
26.06.2014 21:20 19,2 C 16,7 C 60 % 1013,6 hPa 0,0 l/m 0 min 0 min 0,0 UV-I 18 W/m 0,0 km/h (0 Bft)
26.06.2014 21:22 19,1 C 16,1 C 61 % 1013,6 hPa 0,0 l/m 0 min 0 min 0,0 UV-I 15 W/m 0,0 km/h (0 Bft)
26.06.2014 21:24 19,0 C 16,1 C 62 % 1013,7 hPa 0,0 l/m 0 min 0 min 0,0 UV-I 15 W/m 0,0 km/h (0 Bft)
26.06.2014 21:26 18,8 C 16,1 C 62 % 1013,7 hPa 0,0 l/m 0 min 0 min 0,0 UV-I 15 W/m 0,0 km/h (0 Bft)
26.06.2014 21:28 18,7 C 16,1 C 63 % 1013,7 hPa 0,0 l/m 0 min 0 min 0,0 UV-I 14 W/m 0,0 km/h (0 Bft)
26.06.2014 21:30 18,7 C 16,1 C 62 % 1013,7 hPa 0,0 l/m 0 min 0 min 0,0 UV-I 14 W/m 0,0 km/h (0 Bft)
26.06.2014 21:32 18,6 C 16,1 C 63 % 1013,7 hPa 0,0 l/m 0 min 0 min 0,0 UV-I 12 W/m 0,0 km/h (0 Bft)
26.06.2014 21:34 18,5 C 15,6 C 63 % 1013,7 hPa 0,0 l/m 0 min 0 min 0,0 UV-I 12 W/m 0,0 km/h (0 Bft)
26.06.2014 21:36 18,4 C 15,6 C 64 % 1013,7 hPa 0,0 l/m 0 min 0 min 0,0 UV-I 12 W/m 0,0 km/h (0 Bft)
26.06.2014 21:38 18,3 C 15,6 C 65 % 1013,8 hPa 0,0 l/m 0 min 0 min 0,0 UV-I 9 W/m 0,0 km/h (0 Bft)
26.06.2014 21:40 18,3 C 15,6 C 65 % 1013,8 hPa 0,0 l/m 2 min 0 min 0,0 UV-I 9 W/m 0,0 km/h (0 Bft)
26.06.2014 21:42 18,2 C 15,6 C 65 % 1013,8 hPa 0,0 l/m 0 min 0 min 0,0 UV-I 9 W/m 0,0 km/h (0 Bft)
26.06.2014 21:44 18,2 C 15,6 C 66 % 1013,8 hPa 0,0 l/m 0 min 0 min 0,0 UV-I 6 W/m 0,0 km/h (0 Bft)
26.06.2014 21:46 18,1 C 15,0 C 66 % 1013,8 hPa 0,0 l/m 0 min 0 min 0,0 UV-I 6 W/m 0,0 km/h (0 Bft)
26.06.2014 21:48 18,1 C 15,0 C 66 % 1013,9 hPa 0,0 l/m 0 min 0 min 0,0 UV-I 6 W/m 0,0 km/h (0 Bft)
26.06.2014 21:50 18,0 C 15,0 C 67 % 1013,8 hPa 0,0 l/m 0 min 0 min 0,0 UV-I 6 W/m 0,0 km/h (0 Bft)
26.06.2014 21:52 17,9 C 15,0 C 67 % 1013,9 hPa 0,0 l/m 0 min 0 min 0,0 UV-I 6 W/m 0,0 km/h (0 Bft)
26.06.2014 21:54 17,8 C 15,0 C 68 % 1013,9 hPa 0,0 l/m 0 min 0 min 0,0 UV-I 0 W/m 0,0 km/h (0 Bft)
26.06.2014 21:56 17,7 C 15,0 C 68 % 1013,9 hPa 0,0 l/m 0 min 0 min 0,0 UV-I 0 W/m 0,0 km/h (0 Bft)
26.06.2014 21:58 17,6 C 15,0 C 69 % 1013,9 hPa 0,0 l/m 0 min 0 min 0,0 UV-I 0 W/m 0,0 km/h (0 Bft)
26.06.2014 22:00 17,6 C 15,0 C 69 % 1013,9 hPa 0,0 l/m 0 min 0 min 0,0 UV-I 0 W/m 0,0 km/h (0 Bft)
26.06.2014 22:02 17,6 C 15,0 C 70 % 1013,9 hPa 0,0 l/m 0 min 0 min 0,0 UV-I 0 W/m 0,0 km/h (0 Bft)
26.06.2014 22:04 17,5 C 15,0 C 70 % 1013,9 hPa 0,0 l/m 0 min 0 min 0,0 UV-I 0 W/m 0,0 km/h (0 Bft)
26.06.2014 22:06 17,4 C 15,0 C 71 % 1013,9 hPa 0,0 l/m 0 min 0 min 0,0 UV-I 0 W/m 0,0 km/h (0 Bft)
26.06.2014 22:08 17,3 C 15,0 C 71 % 1013,9 hPa 0,0 l/m 0 min 0 min 0,0 UV-I 0 W/m 0,0 km/h (0 Bft)
26.06.2014 22:10 17,2 C 15,0 C 71 % 1014,0 hPa 0,0 l/m 0 min 0 min 0,0 UV-I 0 W/m 0,0 km/h (0 Bft)
26.06.2014 22:12 17,1 C 14,4 C 72 % 1014,0 hPa 0,0 l/m 0 min 0 min 0,0 UV-I 0 W/m 0,0 km/h (0 Bft)
26.06.2014 22:14 17,1 C 14,4 C 72 % 1014,0 hPa 0,0 l/m 0 min 0 min 0,0 UV-I 0 W/m 0,0 km/h (0 Bft)
26.06.2014 22:16 16,9 C 14,4 C 73 % 1014,0 hPa 0,0 l/m 0 min 0 min 0,0 UV-I 0 W/m 0,0 km/h (0 Bft)
26.06.2014 22:18 16,9 C 14,4 C 74 % 1014,0 hPa 0,0 l/m 0 min 0 min 0,0 UV-I 0 W/m 0,0 km/h (0 Bft)
26.06.2014 22:20 16,8 C 14,4 C 74 % 1014,1 hPa 0,0 l/m 0 min 0 min 0,0 UV-I 0 W/m 0,0 km/h (0 Bft)
26.06.2014 22:22 16,8 C 14,4 C 74 % 1014,0 hPa 0,0 l/m 0 min 0 min 0,0 UV-I 0 W/m 0,0 km/h (0 Bft)
26.06.2014 22:24 16,8 C 14,4 C 74 % 1014,1 hPa 0,0 l/m 0 min 0 min 0,0 UV-I 0 W/m 0,0 km/h (0 Bft)
26.06.2014 22:26 16,7 C 14,4 C 74 % 1014,1 hPa 0,0 l/m 0 min 0 min 0,0 UV-I 0 W/m 0,0 km/h (0 Bft)
26.06.2014 22:28 16,7 C 14,4 C 74 % 1014,1 hPa 0,0 l/m 0 min 0 min 0,0 UV-I 0 W/m 0,0 km/h (0 Bft)
26.06.2014 22:30 16,7 C 14,4 C 74 % 1014,2 hPa 0,0 l/m 0 min 0 min 0,0 UV-I 0 W/m 0,0 km/h (0 Bft)
26.06.2014 22:32 16,6 C 14,4 C 74 % 1014,2 hPa 0,0 l/m 0 min 0 min 0,0 UV-I 0 W/m 0,0 km/h (0 Bft)
26.06.2014 22:34 16,5 C 14,4 C 75 % 1014,2 hPa 0,0 l/m 0 min 0 min 0,0 UV-I 0 W/m 0,0 km/h (0 Bft)
26.06.2014 22:36 16,4 C 14,4 C 75 % 1014,2 hPa 0,0 l/m 0 min 0 min 0,0 UV-I 0 W/m 0,0 km/h (0 Bft)
26.06.2014 22:38 16,3 C 14,4 C 75 % 1014,1 hPa 0,0 l/m 0 min 0 min 0,0 UV-I 0 W/m 0,0 km/h (0 Bft)
26.06.2014 22:40 16,3 C 14,4 C 76 % 1014,1 hPa 0,0 l/m 0 min 0 min 0,0 UV-I 0 W/m 0,0 km/h (0 Bft)
26.06.2014 22:42 16,2 C 13,9 C 77 % 1014,1 hPa 0,0 l/m 0 min 0 min 0,0 UV-I 0 W/m 0,0 km/h (0 Bft)
26.06.2014 22:44 16,2 C 13,9 C 77 % 1014,1 hPa 0,0 l/m 0 min 0 min 0,0 UV-I 0 W/m 0,0 km/h (0 Bft)
26.06.2014 22:46 16,1 C 13,9 C 77 % 1014,1 hPa 0,0 l/m 0 min 0 min 0,0 UV-I 0 W/m 0,0 km/h (0 Bft)
26.06.2014 22:48 16,1 C 13,9 C 77 % 1014,2 hPa 0,0 l/m 0 min 0 min 0,0 UV-I 0 W/m 0,0 km/h (0 Bft)
26.06.2014 22:50 16,1 C 13,9 C 77 % 1014,2 hPa 0,0 l/m 0 min 0 min 0,0 UV-I 0 W/m 0,0 km/h (0 Bft)
26.06.2014 22:52 16,0 C 13,9 C 77 % 1014,2 hPa 0,0 l/m 0 min 0 min 0,0 UV-I 0 W/m 0,0 km/h (0 Bft)
26.06.2014 22:54 15,9 C 13,9 C 77 % 1014,1 hPa 0,0 l/m 0 min 0 min 0,0 UV-I 0 W/m 0,0 km/h (0 Bft)
26.06.2014 22:56 15,8 C 13,9 C 77 % 1014,1 hPa 0,0 l/m 0 min 0 min 0,0 UV-I 0 W/m 0,0 km/h (0 Bft)
26.06.2014 22:58 15,8 C 13,9 C 78 % 1014,2 hPa 0,0 l/m 0 min 0 min 0,0 UV-I 0 W/m 0,0 km/h (0 Bft)
26.06.2014 23:00 15,8 C 13,3 C 78 % 1014,1 hPa 0,0 l/m 0 min 0 min 0,0 UV-I 0 W/m 0,0 km/h (0 Bft)
26.06.2014 23:02 15,8 C 13,3 C 78 % 1014,1 hPa 0,0 l/m 0 min 0 min 0,0 UV-I 0 W/m 0,0 km/h (0 Bft)
26.06.2014 23:04 15,8 C 13,3 C 78 % 1014,2 hPa 0,0 l/m 0 min 0 min 0,0 UV-I 0 W/m 0,0 km/h (0 Bft)
26.06.2014 23:06 15,7 C 13,3 C 78 % 1014,1 hPa 0,0 l/m 0 min 0 min 0,0 UV-I 0 W/m 0,0 km/h (0 Bft)
26.06.2014 23:08 15,6 C 13,3 C 78 % 1014,2 hPa 0,0 l/m 0 min 0 min 0,0 UV-I 0 W/m 0,0 km/h (0 Bft)
26.06.2014 23:10 15,6 C 13,3 C 79 % 1014,1 hPa 0,0 l/m 0 min 0 min 0,0 UV-I 0 W/m 0,0 km/h (0 Bft)
26.06.2014 23:12 15,5 C 13,3 C 79 % 1014,2 hPa 0,0 l/m 0 min 0 min 0,0 UV-I 0 W/m 0,0 km/h (0 Bft)
26.06.2014 23:14 15,5 C 13,3 C 79 % 1014,2 hPa 0,0 l/m 0 min 0 min 0,0 UV-I 0 W/m 0,0 km/h (0 Bft)
26.06.2014 23:16 15,4 C 13,3 C 80 % 1014,2 hPa 0,0 l/m 0 min 0 min 0,0 UV-I 0 W/m 0,0 km/h (0 Bft)
26.06.2014 23:18 15,4 C 13,3 C 80 % 1014,2 hPa 0,0 l/m 0 min 0 min 0,0 UV-I 0 W/m 0,0 km/h (0 Bft)
26.06.2014 23:20 15,3 C 13,3 C 80 % 1014,2 hPa 0,0 l/m 0 min 0 min 0,0 UV-I 0 W/m 0,0 km/h (0 Bft)
26.06.2014 23:22 15,3 C 13,3 C 79 % 1014,2 hPa 0,0 l/m 0 min 0 min 0,0 UV-I 0 W/m 0,0 km/h (0 Bft)
26.06.2014 23:24 15,3 C 13,3 C 79 % 1014,2 hPa 0,0 l/m 0 min 0 min 0,0 UV-I 0 W/m 0,0 km/h (0 Bft)
26.06.2014 23:26 15,3 C 12,8 C 80 % 1014,2 hPa 0,0 l/m 0 min 0 min 0,0 UV-I 0 W/m 0,0 km/h (0 Bft)
26.06.2014 23:28 15,2 C 12,8 C 80 % 1014,2 hPa 0,0 l/m 0 min 0 min 0,0 UV-I 0 W/m 0,0 km/h (0 Bft)
26.06.2014 23:30 15,1 C 12,8 C 80 % 1014,2 hPa 0,0 l/m 0 min 0 min 0,0 UV-I 0 W/m 0,0 km/h (0 Bft)
26.06.2014 23:32 15,1 C 12,8 C 80 % 1014,2 hPa 0,0 l/m 0 min 0 min 0,0 UV-I 0 W/m 0,0 km/h (0 Bft)
26.06.2014 23:34 15,0 C 12,8 C 80 % 1014,3 hPa 0,0 l/m 0 min 0 min 0,0 UV-I 0 W/m 0,0 km/h (0 Bft)
26.06.2014 23:36 15,0 C 12,8 C 80 % 1014,2 hPa 0,0 l/m 0 min 0 min 0,0 UV-I 0 W/m 0,0 km/h (0 Bft)
26.06.2014 23:38 15,0 C 12,8 C 80 % 1014,2 hPa 0,0 l/m 0 min 0 min 0,0 UV-I 0 W/m 0,0 km/h (0 Bft)
26.06.2014 23:40 15,0 C 12,8 C 80 % 1014,2 hPa 0,0 l/m 0 min 0 min 0,0 UV-I 0 W/m 0,0 km/h (0 Bft)
26.06.2014 23:42 14,9 C 12,8 C 80 % 1014,2 hPa 0,0 l/m 0 min 0 min 0,0 UV-I 0 W/m 0,0 km/h (0 Bft)
26.06.2014 23:44 14,9 C 12,8 C 81 % 1014,1 hPa 0,0 l/m 0 min 0 min 0,0 UV-I 0 W/m 0,0 km/h (0 Bft)
26.06.2014 23:46 14,9 C 12,8 C 81 % 1014,1 hPa 0,0 l/m 0 min 0 min 0,0 UV-I 0 W/m 0,0 km/h (0 Bft)
26.06.2014 23:48 14,8 C 12,8 C 81 % 1014,1 hPa 0,0 l/m 0 min 0 min 0,0 UV-I 0 W/m 0,0 km/h (0 Bft)
26.06.2014 23:50 14,8 C 12,8 C 81 % 1014,0 hPa 0,0 l/m 0 min 0 min 0,0 UV-I 0 W/m 0,0 km/h (0 Bft)
26.06.2014 23:52 14,7 C 12,8 C 81 % 1014,1 hPa 0,0 l/m 0 min 0 min 0,0 UV-I 0 W/m 0,0 km/h (0 Bft)
26.06.2014 23:54 14,7 C 12,8 C 82 % 1014,0 hPa 0,0 l/m 0 min 0 min 0,0 UV-I 0 W/m 0,0 km/h (0 Bft)
26.06.2014 23:56 14,7 C 12,8 C 82 % 1014,1 hPa 0,0 l/m 0 min 0 min 0,0 UV-I 0 W/m 0,0 km/h (0 Bft)
26.06.2014 23:58 14,7 C 12,8 C 82 % 1014,1 hPa 0,0 l/m 0 min 0 min 0,0 UV-I 0 W/m 0,0 km/h (0 Bft)
_ Min-Zeit 03:48 03:54 15:12 18:28 - - - - - 00:00
Minimum _ 11,3 C 9,4 C 43 % 1013,4 hPa - - - - - 0,0 km/h (0 Bft)
_ Max-Zeit 15:24 14:22 05:40 01:10 00:00 06:24 00:00 13:02 14:10 14:00
Maximum _ 23,8 C 31,7 C 91 % 1016,0 hPa 0,0 l/m 2 min 0 min 4,9 UV-I 939 W/m 23,0 km/h
S (4 Bft)
Durchschnitt _ 17,4 C 17,2 C 68 % 1014,8 hPa #0,0 l/m #11:32 h #0 min. 2,6 UV-I 439 W/m 5,1 km/h (1 Bft)
© 2014 W. Hausmann